Want more features on Pastebin? Sign Up, it's FREE!
Guest

Untitled

By: a guest on Oct 9th, 2011  |  syntax: None  |  size: 78.61 KB  |  views: 40  |  expires: Never
download  |  raw  |  embed  |  report abuse  |  print
Text below is selected. Please press Ctrl+C to copy to your clipboard. (⌘+C on Mac)
  1. 21:56:24 T:4248  NOTICE: -----------------------------------------------------------------------
  2. 21:56:24 T:4248  NOTICE: Starting XBMC, Platform: Windows 7, 64-bit (WoW) Service Pack 1 build 7601. Built on Oct  8 2011 (Git:20111007-e330173, compiler 1600)
  3. 21:56:24 T:4248  NOTICE: Intel(R) Core(TM)2 Duo CPU     E6850  @ 3.00GHz
  4. 21:56:24 T:4248  NOTICE: Desktop Resolution: 1920x1200 32Bit at 59Hz
  5. 21:56:24 T:4248  NOTICE: Running with administrator rights
  6. 21:56:24 T:4248  NOTICE: Aero is enabled
  7. 21:56:24 T:4248  NOTICE: special://xbmc/ is mapped to: C:\Program Files (x86)\XBMC_SVN
  8. 21:56:24 T:4248  NOTICE: special://xbmcbin/ is mapped to: C:\Program Files (x86)\XBMC_SVN
  9. 21:56:24 T:4248  NOTICE: special://masterprofile/ is mapped to: C:\Program Files (x86)\XBMC_SVN\portable_data\userdata
  10. 21:56:24 T:4248  NOTICE: special://home/ is mapped to: C:\Program Files (x86)\XBMC_SVN\portable_data
  11. 21:56:24 T:4248  NOTICE: special://temp/ is mapped to: C:\Program Files (x86)\XBMC_SVN\portable_data\temp
  12. 21:56:24 T:4248  NOTICE: The executable running is: C:\Program Files (x86)\XBMC_SVN\XBMC.exe
  13. 21:56:24 T:4248  NOTICE: Log File is located: C:\Program Files (x86)\XBMC_SVN\xbmc.log
  14. 21:56:24 T:4248  NOTICE: -----------------------------------------------------------------------
  15. 21:56:24 T:4248  NOTICE: Setup SDL
  16. 21:56:24 T:4248  NOTICE: Found screen: SyncMaster 2443BW/2443BWX,SyncMaster Magic CX2443BW/CX2443BWX(Digital) on NVIDIA GeForce GTX 460, adapter 0.
  17. 21:56:24 T:4248  NOTICE: Found screen: iiyama ProLite B2409HDS on NVIDIA GeForce GTX 460, adapter 1.
  18. 21:56:24 T:4248  NOTICE: Primary mode: 1920x1200 @ 59.94 - Full Screen
  19. 21:56:24 T:4248  NOTICE: Secondary mode: 1920x1080 @ 60.00 - Full Screen #2
  20. 21:56:24 T:4248  NOTICE: Additional mode: 640x480 @ 60.00 - Full Screen
  21. 21:56:24 T:4248  NOTICE: Additional mode: 640x480 @ 59.94 - Full Screen
  22. 21:56:24 T:4248  NOTICE: Additional mode: 720x480 @ 56.00 - Full Screen
  23. 21:56:24 T:4248  NOTICE: Previous line repeats 2 times.
  24. 21:56:24 T:4248  NOTICE: Additional mode: 720x480 @ 60.00 - Full Screen
  25. 21:56:24 T:4248  NOTICE: Previous line repeats 2 times.
  26. 21:56:24 T:4248  NOTICE: Additional mode: 720x576 @ 56.00 - Full Screen
  27. 21:56:24 T:4248  NOTICE: Previous line repeats 2 times.
  28. 21:56:24 T:4248  NOTICE: Additional mode: 720x576 @ 60.00 - Full Screen
  29. 21:56:24 T:4248  NOTICE: Previous line repeats 2 times.
  30. 21:56:24 T:4248  NOTICE: Additional mode: 800x600 @ 56.00 - Full Screen
  31. 21:56:24 T:4248  NOTICE: Additional mode: 800x600 @ 60.00 - Full Screen
  32. 21:56:24 T:4248  NOTICE: Additional mode: 1024x768 @ 60.00 - Full Screen
  33. 21:56:24 T:4248  NOTICE: Additional mode: 1152x864 @ 60.00 - Full Screen
  34. 21:56:24 T:4248  NOTICE: Previous line repeats 2 times.
  35. 21:56:24 T:4248  NOTICE: Additional mode: 1280x720 @ 60.00 - Full Screen
  36. 21:56:24 T:4248  NOTICE: Previous line repeats 2 times.
  37. 21:56:24 T:4248  NOTICE: Additional mode: 1280x720 @ 59.94 - Full Screen
  38. 21:56:24 T:4248  NOTICE: Additional mode: 1280x768 @ 60.00 - Full Screen
  39. 21:56:24 T:4248  NOTICE: Previous line repeats 2 times.
  40. 21:56:24 T:4248  NOTICE: Additional mode: 1280x800 @ 60.00 - Full Screen
  41. 21:56:24 T:4248  NOTICE: Previous line repeats 2 times.
  42. 21:56:24 T:4248  NOTICE: Additional mode: 1280x960 @ 60.00 - Full Screen
  43. 21:56:24 T:4248  NOTICE: Additional mode: 1280x1024 @ 60.00 - Full Screen
  44. 21:56:24 T:4248  NOTICE: Additional mode: 1360x768 @ 60.00 - Full Screen
  45. 21:56:24 T:4248  NOTICE: Previous line repeats 2 times.
  46. 21:56:24 T:4248  NOTICE: Additional mode: 1366x768 @ 60.00 - Full Screen
  47. 21:56:24 T:4248  NOTICE: Previous line repeats 2 times.
  48. 21:56:24 T:4248  NOTICE: Additional mode: 1600x900 @ 60.00 - Full Screen
  49. 21:56:24 T:4248  NOTICE: Previous line repeats 2 times.
  50. 21:56:24 T:4248  NOTICE: Additional mode: 1600x1024 @ 60.00 - Full Screen
  51. 21:56:24 T:4248  NOTICE: Previous line repeats 2 times.
  52. 21:56:24 T:4248  NOTICE: Additional mode: 1600x1200 @ 60.00 - Full Screen
  53. 21:56:24 T:4248  NOTICE: Additional mode: 1680x1050 @ 59.94 - Full Screen
  54. 21:56:24 T:4248  NOTICE: Additional mode: 1680x1050 @ 60.00 - Full Screen
  55. 21:56:24 T:4248  NOTICE: Additional mode: 1680x1050 @ 59.94 - Full Screen
  56. 21:56:24 T:4248  NOTICE: Additional mode: 1680x1050 @ 60.00 - Full Screen
  57. 21:56:24 T:4248  NOTICE: Additional mode: 1680x1050 @ 59.94 - Full Screen
  58. 21:56:24 T:4248  NOTICE: Additional mode: 1680x1050 @ 60.00 - Full Screen
  59. 21:56:24 T:4248  NOTICE: Additional mode: 1920x1080 @ 59.94 - Full Screen
  60. 21:56:24 T:4248  NOTICE: Additional mode: 1920x1080 @ 60.00 - Full Screen
  61. 21:56:24 T:4248  NOTICE: Additional mode: 1920x1080 @ 59.94 - Full Screen
  62. 21:56:24 T:4248  NOTICE: Additional mode: 1920x1080 @ 60.00 - Full Screen
  63. 21:56:24 T:4248  NOTICE: Additional mode: 1920x1080 @ 59.94 - Full Screen
  64. 21:56:24 T:4248  NOTICE: Additional mode: 1920x1080 @ 60.00 - Full Screen
  65. 21:56:24 T:4248  NOTICE: Additional mode: 1920x1200 @ 59.94 - Full Screen
  66. 21:56:24 T:4248  NOTICE: Additional mode: 1920x1200 @ 60.00 - Full Screen
  67. 21:56:24 T:4248  NOTICE: Additional mode: 1440x900 @ 60.00 - Full Screen
  68. 21:56:24 T:4248  NOTICE: Previous line repeats 2 times.
  69. 21:56:24 T:4248  NOTICE: Additional mode: 1920x1080 @ 60.00 - Full Screen #2
  70. 21:56:24 T:4248  NOTICE: Additional mode: 1920x1080 @ 59.94 - Full Screen #2
  71. 21:56:24 T:4248  NOTICE: Additional mode: 1920x1080 @ 29.97i - Full Screen #2
  72. 21:56:24 T:4248  NOTICE: Additional mode: 1920x1080 @ 30.00i - Full Screen #2
  73. 21:56:24 T:4248  NOTICE: Additional mode: 640x480 @ 60.00 - Full Screen #2
  74. 21:56:24 T:4248  NOTICE: Additional mode: 640x480 @ 59.94 - Full Screen #2
  75. 21:56:24 T:4248  NOTICE: Additional mode: 640x480 @ 72.00 - Full Screen #2
  76. 21:56:24 T:4248  NOTICE: Additional mode: 640x480 @ 75.00 - Full Screen #2
  77. 21:56:24 T:4248  NOTICE: Additional mode: 720x480 @ 59.94 - Full Screen #2
  78. 21:56:24 T:4248  NOTICE: Additional mode: 720x480 @ 60.00 - Full Screen #2
  79. 21:56:24 T:4248  NOTICE: Additional mode: 720x576 @ 50.00 - Full Screen #2
  80. 21:56:24 T:4248  NOTICE: Additional mode: 800x600 @ 56.00 - Full Screen #2
  81. 21:56:24 T:4248  NOTICE: Additional mode: 800x600 @ 60.00 - Full Screen #2
  82. 21:56:24 T:4248  NOTICE: Additional mode: 800x600 @ 72.00 - Full Screen #2
  83. 21:56:24 T:4248  NOTICE: Additional mode: 800x600 @ 75.00 - Full Screen #2
  84. 21:56:24 T:4248  NOTICE: Additional mode: 1024x768 @ 60.00 - Full Screen #2
  85. 21:56:24 T:4248  NOTICE: Additional mode: 1024x768 @ 70.00 - Full Screen #2
  86. 21:56:24 T:4248  NOTICE: Additional mode: 1024x768 @ 75.00 - Full Screen #2
  87. 21:56:24 T:4248  NOTICE: Additional mode: 1152x864 @ 75.00 - Full Screen #2
  88. 21:56:24 T:4248  NOTICE: Additional mode: 1176x664 @ 50.00 - Full Screen #2
  89. 21:56:24 T:4248  NOTICE: Previous line repeats 2 times.
  90. 21:56:24 T:4248  NOTICE: Additional mode: 1176x664 @ 60.00 - Full Screen #2
  91. 21:56:24 T:4248  NOTICE: Previous line repeats 2 times.
  92. 21:56:24 T:4248  NOTICE: Additional mode: 1176x664 @ 59.94 - Full Screen #2
  93. 21:56:24 T:4248  NOTICE: Previous line repeats 2 times.
  94. 21:56:24 T:4248  NOTICE: Additional mode: 1280x720 @ 60.00 - Full Screen #2
  95. 21:56:24 T:4248  NOTICE: Additional mode: 1280x720 @ 59.94 - Full Screen #2
  96. 21:56:24 T:4248  NOTICE: Additional mode: 1280x720 @ 50.00 - Full Screen #2
  97. 21:56:24 T:4248  NOTICE: Additional mode: 1280x768 @ 60.00 - Full Screen #2
  98. 21:56:24 T:4248  NOTICE: Previous line repeats 2 times.
  99. 21:56:24 T:4248  NOTICE: Additional mode: 1280x800 @ 60.00 - Full Screen #2
  100. 21:56:24 T:4248  NOTICE: Previous line repeats 2 times.
  101. 21:56:24 T:4248  NOTICE: Additional mode: 1280x960 @ 60.00 - Full Screen #2
  102. 21:56:24 T:4248  NOTICE: Additional mode: 1280x1024 @ 60.00 - Full Screen #2
  103. 21:56:24 T:4248  NOTICE: Additional mode: 1280x1024 @ 75.00 - Full Screen #2
  104. 21:56:24 T:4248  NOTICE: Additional mode: 1360x768 @ 60.00 - Full Screen #2
  105. 21:56:24 T:4248  NOTICE: Previous line repeats 2 times.
  106. 21:56:24 T:4248  NOTICE: Additional mode: 1360x768 @ 75.00 - Full Screen #2
  107. 21:56:24 T:4248  NOTICE: Previous line repeats 2 times.
  108. 21:56:24 T:4248  NOTICE: Additional mode: 1366x768 @ 60.00 - Full Screen #2
  109. 21:56:24 T:4248  NOTICE: Previous line repeats 2 times.
  110. 21:56:24 T:4248  NOTICE: Additional mode: 1366x768 @ 75.00 - Full Screen #2
  111. 21:56:24 T:4248  NOTICE: Previous line repeats 2 times.
  112. 21:56:24 T:4248  NOTICE: Additional mode: 1600x900 @ 59.94 - Full Screen #2
  113. 21:56:24 T:4248  NOTICE: Additional mode: 1600x900 @ 60.00 - Full Screen #2
  114. 21:56:24 T:4248  NOTICE: Additional mode: 1600x900 @ 59.94 - Full Screen #2
  115. 21:56:24 T:4248  NOTICE: Additional mode: 1600x900 @ 60.00 - Full Screen #2
  116. 21:56:24 T:4248  NOTICE: Additional mode: 1600x900 @ 59.94 - Full Screen #2
  117. 21:56:24 T:4248  NOTICE: Additional mode: 1600x900 @ 60.00 - Full Screen #2
  118. 21:56:24 T:4248  NOTICE: Additional mode: 1600x1024 @ 59.94 - Full Screen #2
  119. 21:56:24 T:4248  NOTICE: Additional mode: 1600x1024 @ 60.00 - Full Screen #2
  120. 21:56:24 T:4248  NOTICE: Additional mode: 1600x1024 @ 59.94 - Full Screen #2
  121. 21:56:24 T:4248  NOTICE: Additional mode: 1600x1024 @ 60.00 - Full Screen #2
  122. 21:56:24 T:4248  NOTICE: Additional mode: 1600x1024 @ 59.94 - Full Screen #2
  123. 21:56:24 T:4248  NOTICE: Additional mode: 1600x1024 @ 60.00 - Full Screen #2
  124. 21:56:24 T:4248  NOTICE: Additional mode: 1680x1050 @ 59.94 - Full Screen #2
  125. 21:56:24 T:4248  NOTICE: Additional mode: 1680x1050 @ 60.00 - Full Screen #2
  126. 21:56:24 T:4248  NOTICE: Additional mode: 1768x992 @ 60.00 - Full Screen #2
  127. 21:56:24 T:4248  NOTICE: Previous line repeats 2 times.
  128. 21:56:24 T:4248  NOTICE: Additional mode: 1768x992 @ 59.94 - Full Screen #2
  129. 21:56:24 T:4248  NOTICE: Previous line repeats 2 times.
  130. 21:56:24 T:4248  NOTICE: Additional mode: 1440x900 @ 60.00 - Full Screen #2
  131. 21:56:24 T:4248  NOTICE: Additional mode: 1440x900 @ 75.00 - Full Screen #2
  132. 21:56:24 T:4248  NOTICE: load settings...
  133. 21:56:24 T:4248  NOTICE: special://profile/ is mapped to: special://masterprofile/
  134. 21:56:24 T:4248  NOTICE: loading special://masterprofile/guisettings.xml
  135. 21:56:25 T:4248  NOTICE: Getting hardware information now...
  136. 21:56:25 T:4248  NOTICE: Checking resolution 13
  137. 21:56:25 T:4248  NOTICE: Loading player core factory settings from special://xbmc/system/playercorefactory.xml.
  138. 21:56:25 T:4248  NOTICE: Loaded playercorefactory configuration
  139. 21:56:25 T:4248  NOTICE: Loading player core factory settings from special://masterprofile/playercorefactory.xml.
  140. 21:56:25 T:4248  NOTICE: special://masterprofile/playercorefactory.xml does not exist. Skipping.
  141. 21:56:25 T:4248  NOTICE: No settings file to load to load (special://xbmc/system/advancedsettings.xml)
  142. 21:56:25 T:4248  NOTICE: Loaded settings file from special://profile/advancedsettings.xml
  143. 21:56:25 T:4248  NOTICE: Contents of special://profile/advancedsettings.xml are...
  144.                                             <advancedsettings>
  145.                                               <videoextensions>
  146.                                                 <add>index.bdmv</add>
  147.                                               </videoextensions>
  148.                                               <useddsfanart>true</useddsfanart>
  149.                                               <gui>
  150.                                                 <algorithmdirtyregions>1</algorithmdirtyregions>
  151.                                                 <visualizedirtyregions>false</visualizedirtyregions>
  152.                                                 <nofliptimeout>0</nofliptimeout>
  153.                                               </gui>
  154.                                               <loglevel>1</loglevel>
  155.                                               <videodatabase>
  156.                                                 <type>mysql</type>
  157.                                                 <host>192.168.50.150</host>
  158.                                                 <port>3306</port>
  159.                                                 <user>xbmc</user>
  160.                                                 <pass>xbmc</pass>
  161.                                                 <name>xbmc_video</name>
  162.                                               </videodatabase>
  163.                                               <musicdatabase>
  164.                                                 <type>mysql</type>
  165.                                                 <host>192.168.50.150</host>
  166.                                                 <port>3306</port>
  167.                                                 <user>xbmc</user>
  168.                                                 <pass>xbmc</pass>
  169.                                                 <name>xbmc_music</name>
  170.                                               </musicdatabase>
  171.                                               <pathsubstitution>
  172.                                                 <substitute>
  173.                                                   <from>smb://192.168.50.102/MARS/</from>
  174.                                                   <to>H:\</to>
  175.                                                 </substitute>
  176.                                               </pathsubstitution>
  177.                                               <network>
  178.                                                 <cachemembuffersize>0</cachemembuffersize>
  179.                                                 <!-- number of bytes used for buffering streams ahead in memory
  180.                                                 XBMC will not buffer ahead more than this. WARNING: for the bytes set here, XBMC will consume 3x the amount of RAM -->
  181.                                               </network>
  182.                                               <showexitbutton>false</showexitbutton>
  183.                                             </advancedsettings>
  184. 21:56:25 T:4248  NOTICE: Log level changed to 1
  185. 21:56:25 T:4248   DEBUG: Configuring path substitutions
  186. 21:56:25 T:4248   DEBUG:   Registering substition pair:
  187. 21:56:25 T:4248   DEBUG:     From: [smb://192.168.50.102/MARS/]
  188. 21:56:25 T:4248   DEBUG:     To:   [H:\]
  189. 21:56:25 T:4248 WARNING: VIDEO database configuration is experimental.
  190. 21:56:25 T:4248  NOTICE: Getting hardware information now...
  191. 21:56:25 T:4248    INFO: Using digital output
  192. 21:56:25 T:4248    INFO: AC3 pass through is enabled
  193. 21:56:25 T:4248    INFO: DTS pass through is enabled
  194. 21:56:25 T:4248    INFO: AAC pass through is disabled
  195. 21:56:25 T:4248    INFO: MP1 pass through is disabled
  196. 21:56:25 T:4248    INFO: MP2 pass through is disabled
  197. 21:56:25 T:4248    INFO: MP3 pass through is disabled
  198. 21:56:25 T:4248  NOTICE: Checking resolution 13
  199. 21:56:25 T:4248  NOTICE: Default DVD Player: dvdplayer
  200. 21:56:25 T:4248  NOTICE: Default Video Player: dvdplayer
  201. 21:56:25 T:4248  NOTICE: Default Audio Player: paplayer
  202. 21:56:25 T:4248  NOTICE: Loading media sources from special://masterprofile/sources.xml
  203. 21:56:25 T:4248    INFO: creating subdirectories
  204. 21:56:25 T:4248    INFO: userdata folder: special://masterprofile/
  205. 21:56:25 T:4248    INFO: recording folder:
  206. 21:56:25 T:4248    INFO: screenshots folder:C:\Program Files (x86)\XBMC_SVN\portable_data\temp\
  207. 21:56:25 T:4248    INFO: thumbnails folder: special://masterprofile/Thumbnails
  208. 21:56:25 T:4248    INFO: load language info file: special://xbmc/language/English (US)/langinfo.xml
  209. 21:56:25 T:4248   DEBUG: trying to set locale to eng_deu
  210. 21:56:25 T:4248    INFO: global locale set to English_Germany.1252
  211. 21:56:25 T:4248    INFO: load language file:special://xbmc/language/English (US)/strings.xml
  212. 21:56:25 T:4248   DEBUG: SECTION:LoadDLL(special://xbmcbin/system/cpluff.dll)
  213. 21:56:25 T:4248   DEBUG: ADDON: cpluff: 'Suspicious plug-in descriptor content in C:\Program Files (x86)\XBMC_SVN\portable_data\addons\script.TraktUtilities\addon.xml, line 13, column 5 (ignoring unexpected element res and its contents).'
  214. 21:56:25 T:4248   DEBUG: ADDON: cpluff: 'Plug-in xbmc.json has been installed.'
  215. 21:56:25 T:4248   DEBUG: ADDON: cpluff: 'Plug-in script.xbmc.subtitles has been installed.'
  216. 21:56:25 T:4248   DEBUG: ADDON: cpluff: 'Plug-in metadata.albums.allmusic.com has been installed.'
  217. 21:56:25 T:4248   DEBUG: ADDON: cpluff: 'Plug-in net.rieter.xot.channel.nos has been installed.'
  218. 21:56:25 T:4248   DEBUG: ADDON: cpluff: 'Plug-in webinterface.default has been installed.'
  219. 21:56:25 T:4248   DEBUG: ADDON: cpluff: 'Plug-in repository.xbmc.org has been installed.'
  220. 21:56:25 T:4248   DEBUG: ADDON: cpluff: 'Plug-in webinterface.debug has been installed.'
  221. 21:56:25 T:4248   DEBUG: ADDON: cpluff: 'Plug-in screensaver.xbmc.builtin.black has been installed.'
  222. 21:56:25 T:4248   DEBUG: ADDON: cpluff: 'Plug-in screensaver.rsxs.euphoria has been installed.'
  223. 21:56:25 T:4248   DEBUG: ADDON: cpluff: 'Plug-in script.video-fanart-splitter has been installed.'
  224. 21:56:25 T:4248   DEBUG: ADDON: cpluff: 'Plug-in net.rieter.xot.channel.regionalnl has been installed.'
  225. 21:56:25 T:4248   DEBUG: ADDON: cpluff: 'Plug-in script.video.bookmarks.browser has been installed.'
  226. 21:56:25 T:4248   DEBUG: ADDON: cpluff: 'Plug-in script.randomitems has been installed.'
  227. 21:56:25 T:4248   DEBUG: ADDON: cpluff: 'Plug-in visualization.projectm has been installed.'
  228. 21:56:25 T:4248   DEBUG: ADDON: cpluff: 'Plug-in script.module.simplejson has been installed.'
  229. 21:56:25 T:4248   DEBUG: ADDON: cpluff: 'Plug-in screensaver.xbmc.builtin.dim has been installed.'
  230. 21:56:25 T:4248   DEBUG: ADDON: cpluff: 'Plug-in skin.xperience1080 has been installed.'
  231. 21:56:25 T:4248   DEBUG: ADDON: cpluff: 'Plug-in script.favourites has been installed.'
  232. 21:56:25 T:4248   DEBUG: ADDON: cpluff: 'Plug-in plugin.audio.listenliveeu has been installed.'
  233. 21:56:25 T:4248   DEBUG: ADDON: cpluff: 'Plug-in net.rieter.xot.repository has been installed.'
  234. 21:56:25 T:4248   DEBUG: ADDON: cpluff: 'Plug-in metadata.themoviedb.org has been installed.'
  235. 21:56:25 T:4248   DEBUG: ADDON: cpluff: 'Plug-in metadata.artists.allmusic.com has been installed.'
  236. 21:56:25 T:4248   DEBUG: ADDON: cpluff: 'Plug-in xbmc.metadata has been installed.'
  237. 21:56:25 T:4248   DEBUG: ADDON: cpluff: 'Plug-in script.qlock has been installed.'
  238. 21:56:25 T:4248   DEBUG: ADDON: cpluff: 'Plug-in net.rieter.xot has been installed.'
  239. 21:56:25 T:4248   DEBUG: ADDON: cpluff: 'Plug-in skin.metro has been installed.'
  240. 21:56:25 T:4248   DEBUG: ADDON: cpluff: 'Plug-in skin.confluence has been installed.'
  241. 21:56:25 T:4248   DEBUG: ADDON: cpluff: 'Plug-in skin.aeon.nox.svn has been installed.'
  242. 21:56:25 T:4248   DEBUG: ADDON: cpluff: 'Plug-in script.libraryautoupdate has been installed.'
  243. 21:56:25 T:4248   DEBUG: ADDON: cpluff: 'Plug-in script.unfinishedvideos has been installed.'
  244. 21:56:25 T:4248   DEBUG: ADDON: cpluff: 'Plug-in script.cu.lyrics has been installed.'
  245. 21:56:25 T:4248   DEBUG: ADDON: cpluff: 'Plug-in plugin.audio.luisterpaal has been installed.'
  246. 21:56:25 T:4248   DEBUG: ADDON: cpluff: 'Plug-in metadata.artists.last.fm has been installed.'
  247. 21:56:25 T:4248   DEBUG: ADDON: cpluff: 'Plug-in visualization.glspectrum has been installed.'
  248. 21:56:25 T:4248   DEBUG: ADDON: cpluff: 'Plug-in script.tvtunes has been installed.'
  249. 21:56:25 T:4248   DEBUG: ADDON: cpluff: 'Plug-in script.module.beautifulsoup has been installed.'
  250. 21:56:25 T:4248   DEBUG: ADDON: cpluff: 'Plug-in xbmc.gui has been installed.'
  251. 21:56:25 T:4248   DEBUG: ADDON: cpluff: 'Plug-in visualization.milkdrop has been installed.'
  252. 21:56:25 T:4248   DEBUG: ADDON: cpluff: 'Plug-in script.module.pil has been installed.'
  253. 21:56:25 T:4248   DEBUG: ADDON: cpluff: 'Plug-in script.trakt has been installed.'
  254. 21:56:25 T:4248   DEBUG: ADDON: cpluff: 'Plug-in plugin.video.trailer.addict has been installed.'
  255. 21:56:25 T:4248   DEBUG: ADDON: cpluff: 'Plug-in plugin.video.icefilms has been installed.'
  256. 21:56:25 T:4248   DEBUG: ADDON: cpluff: 'Plug-in plugin.video.gametrailers has been installed.'
  257. 21:56:25 T:4248   DEBUG: ADDON: cpluff: 'Plug-in visualization.dxspectrum has been installed.'
  258. 21:56:25 T:4248   DEBUG: ADDON: cpluff: 'Plug-in net.rieter.xot.channel.mtg has been installed.'
  259. 21:56:25 T:4248   DEBUG: ADDON: cpluff: 'Plug-in script.logo-downloader has been installed.'
  260. 21:56:25 T:4248   DEBUG: ADDON: cpluff: 'Plug-in xbmc.core has been installed.'
  261. 21:56:25 T:4248   DEBUG: ADDON: cpluff: 'Plug-in metadata.common.impa.com has been installed.'
  262. 21:56:25 T:4248   DEBUG: ADDON: cpluff: 'Plug-in net.rieter.xot.channel.sbsnl has been installed.'
  263. 21:56:25 T:4248   DEBUG: ADDON: cpluff: 'Plug-in script.recentlyadded has been installed.'
  264. 21:56:25 T:4248   DEBUG: ADDON: cpluff: 'Plug-in plugin.video.youtube has been installed.'
  265. 21:56:25 T:4248   DEBUG: ADDON: cpluff: 'Plug-in metadata.albums.last.fm has been installed.'
  266. 21:56:25 T:4248   DEBUG: ADDON: cpluff: 'Plug-in weather.weatherplus has been installed.'
  267. 21:56:25 T:4248   DEBUG: ADDON: cpluff: 'Plug-in script.artistslideshow has been installed.'
  268. 21:56:25 T:4248   DEBUG: ADDON: cpluff: 'Plug-in net.rieter.xot.channel.mtv has been installed.'
  269. 21:56:25 T:4248   DEBUG: ADDON: cpluff: 'Plug-in skin.touched has been installed.'
  270. 21:56:25 T:4248   DEBUG: ADDON: cpluff: 'Plug-in screensaver.xbmc.builtin.slideshow has been installed.'
  271. 21:56:25 T:4248   DEBUG: ADDON: cpluff: 'Plug-in net.rieter.xot.channel.nick has been installed.'
  272. 21:56:25 T:4248   DEBUG: ADDON: cpluff: 'Plug-in repository.googlecode.xbmc-addons has been installed.'
  273. 21:56:25 T:4248   DEBUG: ADDON: cpluff: 'Plug-in plugin.audio.abradio.cz has been installed.'
  274. 21:56:25 T:4248   DEBUG: ADDON: cpluff: 'Plug-in net.rieter.xot.channel.videos has been installed.'
  275. 21:56:25 T:4248   DEBUG: ADDON: cpluff: 'Plug-in plugin.program.advanced.launcher has been installed.'
  276. 21:56:25 T:4248   DEBUG: ADDON: cpluff: 'Plug-in skin.aeon.nox has been installed.'
  277. 21:56:25 T:4248   DEBUG: ADDON: cpluff: 'Plug-in metadata.common.movieposterdb.com has been installed.'
  278. 21:56:25 T:4248   DEBUG: ADDON: cpluff: 'Plug-in script.cdartmanager has been installed.'
  279. 21:56:25 T:4248   DEBUG: ADDON: cpluff: 'Plug-in plugin.program.SABnzbd has been installed.'
  280. 21:56:25 T:4248   DEBUG: ADDON: cpluff: 'Plug-in net.rieter.xot.channel.rtlnl has been installed.'
  281. 21:56:25 T:4248   DEBUG: ADDON: cpluff: 'Plug-in net.rieter.xot.channel.be has been installed.'
  282. 21:56:25 T:4248   DEBUG: ADDON: cpluff: 'Plug-in metadata.common.htbackdrops.com has been installed.'
  283. 21:56:25 T:4248   DEBUG: ADDON: cpluff: 'Plug-in metadata.imdb.com has been installed.'
  284. 21:56:25 T:4248   DEBUG: ADDON: cpluff: 'Plug-in script.artworkorganizer has been installed.'
  285. 21:56:25 T:4248   DEBUG: ADDON: cpluff: 'Plug-in script.TraktUtilities has been installed.'
  286. 21:56:25 T:4248   DEBUG: ADDON: cpluff: 'Plug-in script.pseudotv has been installed.'
  287. 21:56:25 T:4248   DEBUG: ADDON: cpluff: 'Plug-in metadata.yahoomusic.com has been installed.'
  288. 21:56:25 T:4248   DEBUG: ADDON: cpluff: 'Plug-in metadata.common.allmusic.com has been installed.'
  289. 21:56:25 T:4248   DEBUG: ADDON: cpluff: 'Plug-in metadata.tvdb.com has been installed.'
  290. 21:56:25 T:4248   DEBUG: ADDON: cpluff: 'Plug-in weather.xbmc.builtin has been installed.'
  291. 21:56:25 T:4248   DEBUG: ADDON: cpluff: 'Plug-in repository.passion.xbmc.org has been installed.'
  292. 21:56:25 T:4248   DEBUG: ADDON: cpluff: 'Plug-in plugin.video.apple.movie.trailers.lite has been installed.'
  293. 21:56:25 T:4248   DEBUG: ADDON: cpluff: 'Plug-in skin.xeebo has been installed.'
  294. 21:56:25 T:4248   DEBUG: ADDON: cpluff: 'Plug-in net.rieter.xot.channel.se has been installed.'
  295. 21:56:25 T:4248   DEBUG: ADDON: cpluff: 'Plug-in metadata.common.last.fm has been installed.'
  296. 21:56:25 T:4248   DEBUG: ADDON: cpluff: 'Plug-in script.ratingupdate has been installed.'
  297. 21:56:25 T:4248   DEBUG: ADDON: cpluff: 'Plug-in metadata.common.themoviedb.org has been installed.'
  298. 21:56:25 T:4248   DEBUG: ADDON: cpluff: 'Plug-in xbmc.python has been installed.'
  299. 21:56:25 T:4248   DEBUG: ADDON: cpluff: 'Plug-in script.tv.show.next.aired has been installed.'
  300. 21:56:25 T:4248   DEBUG: ADDON: cpluff: 'Plug-in metadata.common.imdb.com has been installed.'
  301. 21:56:25 T:4248   DEBUG: ADDON: cpluff: 'Plug-in plugin.video.nederland24 has been installed.'
  302. 21:56:25 T:4248   DEBUG: ADDON: cpluff: 'Plug-in script.module.elementtree has been installed.'
  303. 21:56:25 T:4248   DEBUG: ADDON: cpluff: 'Plug-in skin.confluence-horizontal has been installed.'
  304. 21:56:25 T:4248   DEBUG: ADDON: cpluff: 'Plug-in xbmc.addon has been installed.'
  305. 21:56:25 T:4248   DEBUG: ADDON: cpluff: 'Plug-in visualization.waveform has been installed.'
  306. 21:56:25 T:4248   DEBUG: ADDON: cpluff: 'Plug-in screensaver.rsxs.plasma has been installed.'
  307. 21:56:25 T:4248   DEBUG: ADDON: cpluff: 'Plug-in skin.transparency has been installed.'
  308. 21:56:25 T:4248   DEBUG: ADDON: cpluff: 'Plug-in script.module.pysqlite has been installed.'
  309. 21:56:25 T:4248   DEBUG: ADDON: cpluff: 'Plug-in metadata.mtv.com has been installed.'
  310. 21:56:25 T:4248   DEBUG: ADDON: cpluff: 'Plug-in visualization.itunes has been installed.'
  311. 21:56:25 T:4248   DEBUG: ADDON: cpluff: 'Plug-in skin.aeon.nox.redux has been installed.'
  312. 21:56:25 T:4248   DEBUG: ADDON: cpluff: 'Plug-in net.rieter.xot.channel.streams has been installed.'
  313. 21:56:25 T:4248   DEBUG: ADDON: cpluff: 'Plug-in metadata.common.hdtrailers.net has been installed.'
  314. 21:56:25 T:4248   DEBUG: ADDON: cpluff: 'Plug-in script.extrafanartdownloader has been installed.'
  315. 21:56:25 T:4248   DEBUG: ADDON: cpluff: 'Not all directories were successfully scanned.'
  316. 21:56:25 T:4248  NOTICE: Enabled Joystick: Controller (XBOX 360 For Windows)
  317. 21:56:25 T:4248  NOTICE: Details: Total Axis: 5 Total Hats: 1 Total Buttons: 10
  318. 21:56:25 T:5528   DEBUG: Thread CRemoteControl start, auto delete: 0
  319. 21:56:25 T:2276   DEBUG: Thread XBMC Peripherals start, auto delete: 0
  320. 21:56:25 T:4248   DEBUG: CWinSystemWin32::ResizeInternal - resizing due to size change (0,0,1920,1080 fullscreen)->(1920,0,3840,1080 fullscreen)
  321. 21:56:25 T:4248   DEBUG: CWinEventsWin32::WndProcWindow is active
  322. 21:56:25 T:5528   DEBUG: CRemoteControl::Connect - connecting to: ::1:24000 ...
  323. 21:56:25 T:4248   DEBUG: CRenderSystemDX::InitRenderSystem - trying D3D9Ex...
  324. 21:56:25 T:4248   DEBUG: CRenderSystemDX::InitRenderSystem - using D3D9Ex
  325. 21:56:25 T:4248   DEBUG: CRenderSystemDX::CreateDevice on adapter 1
  326. 21:56:25 T:4248   DEBUG: CRenderSystemDX::CreateDevice - using hardware vertex processing
  327. 21:56:25 T:4248   DEBUG: CRenderSystemDX::CreateDevice - adapter 1: nvd3dum.dll, NVIDIA GeForce GTX 460, VendorId 4318, DeviceId 3618
  328. 21:56:25 T:4248   DEBUG: CRenderSystemDX::CreateDevice - using D3DCAPS2_DYNAMICTEXTURES
  329. 21:56:25 T:4248   DEBUG: CRenderSystemDX::CreateDevice - texture caps: 0x0001ECC5
  330. 21:56:25 T:4248   DEBUG: CRenderSystemDX::CreateDevice - RENDER_CAPS_DXT
  331. 21:56:25 T:4248   DEBUG: CRenderSystemDX::CreateDevice - RENDER_CAPS_NPOT
  332. 21:56:25 T:4248   DEBUG: CRenderSystemDX::CreateDevice - RENDER_CAPS_DXT_NPOT
  333. 21:56:25 T:4248   DEBUG: CRenderSystemDX::CreateDevice - nVidia workaround - disabling RENDER_CAPS_DXT_NPOT
  334. 21:56:25 T:4248   DEBUG: CWinSystemWin32::SetFullScreen (windowed fullscreen) on screen 1 with size 1920x1080, refresh 60.000000
  335. 21:56:25 T:4248    INFO: load default splash image: C:\Program Files (x86)\XBMC_SVN\media\Splash.png
  336. 21:56:25 T:4248   DEBUG: SECTION:LoadDLL(special://xbmcbin/system/ImageLib.dll)
  337. 21:56:25 T:4248    INFO: load keymapping
  338. 21:56:25 T:4248    INFO: Loading special://xbmc/system/keymaps/appcommand.xml
  339. 21:56:25 T:4248    INFO: Loading special://xbmc/system/keymaps/gamepad.xml
  340. 21:56:25 T:4248    INFO: Loading special://xbmc/system/keymaps/joystick.Alienware.Dual.Compatible.Controller.xml
  341. 21:56:25 T:4248    INFO: Loading special://xbmc/system/keymaps/joystick.AppleRemote.xml
  342. 21:56:25 T:4248    INFO: Loading special://xbmc/system/keymaps/joystick.Harmony.xml
  343. 21:56:25 T:4248    INFO: Loading special://xbmc/system/keymaps/joystick.Interact.AxisPad.xml
  344. 21:56:25 T:4248    INFO: Loading special://xbmc/system/keymaps/joystick.Logitech.RumblePad.2.xml
  345. 21:56:25 T:4248    INFO: Loading special://xbmc/system/keymaps/joystick.Microsoft.Xbox.360.Controller.xml
  346. 21:56:25 T:4248    INFO: Loading special://xbmc/system/keymaps/joystick.Microsoft.Xbox.Controller.S.xml
  347. 21:56:25 T:4248    INFO: Loading special://xbmc/system/keymaps/joystick.PS3.Remote.Keyboard.xml
  348. 21:56:25 T:4248    INFO: Loading special://xbmc/system/keymaps/joystick.WiiRemote.xml
  349. 21:56:25 T:4248    INFO: Loading special://xbmc/system/keymaps/keyboard.nyxboard.xml
  350. 21:56:25 T:4248    INFO: Loading special://xbmc/system/keymaps/keyboard.xml
  351. 21:56:25 T:4248    INFO: Loading special://xbmc/system/keymaps/mouse.xml
  352. 21:56:25 T:4248    INFO: Loading special://xbmc/system/keymaps/remote.xml
  353. 21:56:25 T:4248    INFO: Loading special://masterprofile/keymaps/keyboard.xml
  354. 21:56:25 T:4248    INFO: Loading special://profile/keymaps/keyboard.xml
  355. 21:56:25 T:4248    INFO: Loading special://xbmc/system/IRSSmap.xml
  356. 21:56:25 T:4248    INFO: * Adding remote mapping for device 'Microsoft MCE'
  357. 21:56:25 T:4248    INFO: * Adding remote mapping for device 'Abstract'
  358. 21:56:25 T:4248   DEBUG: CButtonTranslator::Load - no userdata IRSSmap.xml found, skipping
  359. 21:56:25 T:4248    INFO: GUI format 1920x1080 1920x1080 @ 60.00 - Full Screen #2
  360. 21:56:25 T:4248   DEBUG: guilib: Union as algorithm for solving rendering passes
  361. 21:56:25 T:4248  NOTICE: initializing playlistplayer
  362. 21:56:25 T:4248  NOTICE: DONE initializing playlistplayer
  363. 21:56:25 T:4248   DEBUG: DPMS: supported power-saving modes: OFF STANDBY
  364. 21:56:25 T:4248    INFO: Unloading old skin ...
  365. 21:56:25 T:4248    INFO:   load skin from:C:\Program Files (x86)\XBMC_SVN\portable_data\addons\skin.aeon.nox
  366. 21:56:25 T:4248    INFO:   load fonts for skin...
  367. 21:56:25 T:4248    INFO: Loading colors from C:\Program Files (x86)\XBMC_SVN\portable_data\addons\skin.aeon.nox\colors\Lite_Floor.xml
  368. 21:56:25 T:4248    INFO: Loading fonts from C:\Program Files (x86)\XBMC_SVN\portable_data\addons\skin.aeon.nox\720p\Font.xml
  369. 21:56:25 T:4248   DEBUG: unable to load C:\Program Files (x86)\XBMC_SVN\portable_data\addons\skin.aeon.nox\language\English (US)\strings.xml: Failed to open file at line 0
  370. 21:56:25 T:4248    INFO: Loading skin includes from C:\Program Files (x86)\XBMC_SVN\portable_data\addons\skin.aeon.nox\720p\includes.xml
  371. 21:56:26 T:4248    INFO:   load new skin...
  372. 21:56:26 T:4248    INFO: Loading skin file: Home.xml
  373. 21:56:26 T:4248   ERROR: unmatched parentheses in System.Date(d mmm yyyy
  374. 21:56:26 T:4248    INFO: Loading user windows, path C:\Program Files (x86)\XBMC_SVN\portable_data\addons\skin.aeon.nox\720p
  375. 21:56:26 T:5528   DEBUG: CRemoteControl::Connect - connecting to: 127.0.0.1:24000 ...
  376. 21:56:26 T:4248   DEBUG: Load Skin XML: 174.80ms
  377. 21:56:26 T:4248    INFO:   initialize new skin...
  378. 21:56:26 T:4248   DEBUG: guilib: Union as algorithm for solving rendering passes
  379. 21:56:26 T:4248    INFO: Loading skin file: Pointer.xml
  380. 21:56:26 T:4248    INFO: Loading skin file: DialogVolumeBar.xml
  381. 21:56:26 T:4248    INFO: Loading skin file: DialogKaiToast.xml
  382. 21:56:26 T:4248    INFO: Loading skin file: DialogMuteBug.xml
  383. 21:56:26 T:4248    INFO: Loading skin file: DialogSeekBar.xml
  384. 21:56:26 T:4248    INFO: Loading skin file: DialogBusy.xml
  385. 21:56:26 T:4248   DEBUG: CGUIAudioManager::Initialize
  386. 21:56:26 T:4248   DEBUG: CAudioContext::SetActiveDevice - SetActiveDevice from 1 to 2
  387. 21:56:26 T:4248   DEBUG: CAudioContext::RemoveActiveDevice - Removing device 1
  388. 21:56:26 T:4248   DEBUG: CWDSound::direct_sound_enumerator_member_callback - found Device: Primary Sound Driver
  389. 21:56:26 T:4248   DEBUG: CWDSound::direct_sound_enumerator_member_callback - found Device: Speakers (2- Creative SB X-Fi)
  390. 21:56:26 T:4248   DEBUG: CWDSound::direct_sound_enumerator_member_callback - found Device: SPDIF Out (2- Creative SB X-Fi)
  391. 21:56:26 T:4248   DEBUG: CWDSound::direct_sound_enumerator_member_callback - found Device: Digital Audio (S/PDIF) (High Definition Audio Device)
  392. 21:56:26 T:4248   DEBUG: CAudioContext::SetActiveDevice - selecting Digital Audio (S/PDIF) (High Definition Audio Device) as output devices
  393. 21:56:26 T:4248    INFO: Loading C:\Program Files (x86)\XBMC_SVN\portable_data\addons\skin.aeon.nox\sounds\sounds.xml
  394. 21:56:26 T:4248    INFO:   skin loaded...
  395. 21:56:26 T:4248   DEBUG: Activating window ID: 12999
  396. 21:56:26 T:4248   DEBUG: ------ Window Init (Startup.xml) ------
  397. 21:56:26 T:4248    INFO: Loading skin file: Startup.xml
  398. 21:56:26 T:4248    INFO: removing tempfiles
  399. 21:56:26 T:4248   DEBUG: ADDON: Starting service addons.
  400. 21:56:26 T:4248    INFO: initializing python engine.
  401. 21:56:26 T:4248   DEBUG: new python thread created. id=1
  402. 21:56:26 T:4248  NOTICE: initialize done
  403. 21:56:26 T:4248  NOTICE: Running the application...
  404. 21:56:26 T:4248   DEBUG: CApplication::ExecuteXBMCAction : Translating ReplaceWindow(Home)
  405. 21:56:26 T:4248   DEBUG: CApplication::ExecuteXBMCAction : To ReplaceWindow(Home)
  406. 21:56:26 T:5208   DEBUG: Thread XBPyThread start, auto delete: 0
  407. 21:56:26 T:5208   DEBUG: Python thread: start processing
  408. 21:56:26 T:4248   DEBUG: Activating window ID: 10000
  409. 21:56:26 T:4248   DEBUG: ------ Window Deinit (Startup.xml) ------
  410. 21:56:26 T:4248   DEBUG: ------ Window Init (Home.xml) ------
  411. 21:56:26 T:4248   DEBUG: CTextureBundleXBT::OpenBundle - Opened bundle C:\Program Files (x86)\XBMC_SVN\portable_data\addons\skin.aeon.nox\media\Lite_Floor.xbt
  412. 21:56:26 T:4248   DEBUG: CTextureBundleXBT::OpenBundle - Opened bundle C:\Program Files (x86)\XBMC_SVN\portable_data\addons\skin.aeon.nox\media\Textures.xbt
  413. 21:56:26 T:4216   DEBUG: Thread Jobworker start, auto delete: 1
  414. 21:56:26 T:5208  NOTICE: -->Python Interpreter Initialized<--
  415. 21:56:26 T:5208   DEBUG: XBPyThread::Process - The source file to load is C:\Program Files (x86)\XBMC_SVN\portable_data\addons\script.TraktUtilities\service.py
  416. 21:56:26 T:4248   DEBUG: CApplication::ExecuteXBMCAction : Translating XBMC.RunScript(script.randomitems,limit=8&unplayed=True)
  417. 21:56:26 T:4248   DEBUG: CApplication::ExecuteXBMCAction : To XBMC.RunScript(script.randomitems,limit=8&unplayed=True)
  418. 21:56:26 T:4248    INFO: initializing python engine.
  419. 21:56:26 T:4248   DEBUG: new python thread created. id=2
  420. 21:56:26 T:4248    INFO: initializing python engine.
  421. 21:56:26 T:4248   DEBUG: new python thread created. id=3
  422. 21:56:26 T:4248   DEBUG: CNetwork::NetworkMessage - Starting network services
  423. 21:56:26 T:4248  NOTICE: Webserver: Starting...
  424. 21:56:26 T:4216   DEBUG: CRecentlyAddedJob::UpdateMusic() - Running RecentlyAdded home screen update
  425. 21:56:26 T:5208   DEBUG: XBPyThread::Process - Setting the Python path to C:\Program Files (x86)\XBMC_SVN\portable_data\addons\script.TraktUtilities;C:\Program Files (x86)\XBMC_SVN\portable_data\addons\script.module.simplejson\lib;C:\Program Files (x86)\XBMC_SVN\portable_data\addons\script.module.beautifulsoup\lib;C:\Program Files (x86)\XBMC_SVN\addons\script.module.pil\lib;C:\Program Files (x86)\XBMC_SVN\portable_data\addons\script.module.elementtree\lib;C:\Program Files (x86)\XBMC_SVN\addons\script.module.pysqlite\lib;C:\Program Files (x86)\XBMC_SVN\system\python\DLLs;C:\Program Files (x86)\XBMC_SVN\system\python\Lib;C:\Program Files (x86)\XBMC_SVN\python26.zip;C:\Program Files (x86)\XBMC_SVN\system\python\lib\plat-win;C:\Program Files (x86)\XBMC_SVN\system\python\lib\lib-tk;C:\Program Files (x86)\XBMC_SVN;C:\Program Files (x86)\XBMC_SVN\system\python;C:\Program Files (x86)\XBMC_SVN\system\python\lib\site-packages;
  426. 21:56:26 T:5208   DEBUG: XBPyThread::Process - Entering source directory C:\Program Files (x86)\XBMC_SVN\portable_data\addons\script.TraktUtilities
  427. 21:56:26 T:5208   DEBUG: Instantiating addon using automatically obtained id of "script.TraktUtilities" dependent on version 1.0 of the xbmc.python api
  428. 21:56:26 T:5476   DEBUG: Thread XBPyThread start, auto delete: 0
  429. 21:56:26 T:5476   DEBUG: Python thread: start processing
  430. 21:56:26 T:4216   DEBUG: GetRecentlyAddedAlbumSongs() query: SELECT songview.* FROM (SELECT idAlbum FROM albumview ORDER BY idAlbum DESC LIMIT 10) AS recentalbums JOIN songview ON songview.idAlbum=recentalbums.idAlbum
  431. 21:56:26 T:5084   DEBUG: Thread XBPyThread start, auto delete: 0
  432. 21:56:26 T:5084   DEBUG: Python thread: start processing
  433. 21:56:26 T:4248  NOTICE: WebServer: Started the webserver
  434. 21:56:26 T:4248  NOTICE: starting upnp renderer
  435. 21:56:26 T:4248  NOTICE: ES: Starting event server
  436. 21:56:26 T:3024   DEBUG: Thread CEventServer start, auto delete: 0
  437. 21:56:26 T:3024  NOTICE: ES: Starting UDP Event server on 0.0.0.0:9777
  438. 21:56:26 T:3024  NOTICE: UDP: Listening on port 9777
  439. 21:56:26 T:4248    INFO: JSONRPC Server: Unable to get bluetooth socket
  440. 21:56:26 T:4248    INFO: JSONRPC Server: Successfully initialized
  441. 21:56:26 T:4248   DEBUG: CLastfmScrobbler: Clearing session.
  442. 21:56:26 T:4248   DEBUG: CLibrefmScrobbler: Clearing session.
  443. 21:56:26 T:5316   DEBUG: Thread JSONRPC::CTCPServer start, auto delete: 0
  444. 21:56:26 T:2432   DEBUG: Thread Jobworker start, auto delete: 1
  445. 21:56:26 T:5208   ERROR: C:\Program Files (x86)\XBMC_SVN\portable_data\addons\script.TraktUtilities\nbhttpconnection.py:22: DeprecationWarning: the sha module is deprecated; use the hashlib module instead
  446.                                               import sha
  447. 21:56:26 T:5208  NOTICE: Trakt Utilities: service: script.TraktUtilities - version: 0.6.3
  448. 21:56:26 T:2432   DEBUG: CImageLoader::DoWork - took 115 ms to load special://skin/backgrounds/movies.jpg
  449. 21:56:26 T:5084  NOTICE: -->Python Interpreter Initialized<--
  450. 21:56:26 T:5084   DEBUG: XBPyThread::Process - The source file to load is C:\Program Files (x86)\XBMC_SVN\portable_data\addons\script.randomitems\RandomItems.py
  451. 21:56:26 T:5476  NOTICE: -->Python Interpreter Initialized<--
  452. 21:56:26 T:5476   DEBUG: XBPyThread::Process - The source file to load is C:\Program Files (x86)\XBMC_SVN\portable_data\userdata\autoexec.py
  453. 21:56:26 T:5084   DEBUG: XBPyThread::Process - Setting the Python path to C:\Program Files (x86)\XBMC_SVN\portable_data\addons\script.randomitems;C:\Program Files (x86)\XBMC_SVN\portable_data\addons\script.module.simplejson\lib;C:\Program Files (x86)\XBMC_SVN\portable_data\addons\script.module.beautifulsoup\lib;C:\Program Files (x86)\XBMC_SVN\addons\script.module.pil\lib;C:\Program Files (x86)\XBMC_SVN\portable_data\addons\script.module.elementtree\lib;C:\Program Files (x86)\XBMC_SVN\addons\script.module.pysqlite\lib;C:\Program Files (x86)\XBMC_SVN\system\python\DLLs;C:\Program Files (x86)\XBMC_SVN\system\python\Lib;C:\Program Files (x86)\XBMC_SVN\python26.zip;C:\Program Files (x86)\XBMC_SVN\system\python\lib\plat-win;C:\Program Files (x86)\XBMC_SVN\system\python\lib\lib-tk;C:\Program Files (x86)\XBMC_SVN;C:\Program Files (x86)\XBMC_SVN\system\python;C:\Program Files (x86)\XBMC_SVN\system\python\lib\site-packages;
  454. 21:56:26 T:5084   DEBUG: XBPyThread::Process - Entering source directory C:\Program Files (x86)\XBMC_SVN\portable_data\addons\script.randomitems
  455. 21:56:26 T:5476   DEBUG: XBPyThread::Process - Setting the Python path to C:\Program Files (x86)\XBMC_SVN\portable_data\userdata;C:\Program Files (x86)\XBMC_SVN\portable_data\addons\script.module.simplejson\lib;C:\Program Files (x86)\XBMC_SVN\portable_data\addons\script.module.beautifulsoup\lib;C:\Program Files (x86)\XBMC_SVN\addons\script.module.pil\lib;C:\Program Files (x86)\XBMC_SVN\portable_data\addons\script.module.elementtree\lib;C:\Program Files (x86)\XBMC_SVN\addons\script.module.pysqlite\lib;C:\Program Files (x86)\XBMC_SVN\system\python\DLLs;C:\Program Files (x86)\XBMC_SVN\system\python\Lib;C:\Program Files (x86)\XBMC_SVN\python26.zip;C:\Program Files (x86)\XBMC_SVN\system\python\lib\plat-win;C:\Program Files (x86)\XBMC_SVN\system\python\lib\lib-tk;C:\Program Files (x86)\XBMC_SVN;C:\Program Files (x86)\XBMC_SVN\system\python;C:\Program Files (x86)\XBMC_SVN\system\python\lib\site-packages;
  456. 21:56:26 T:5476   DEBUG: XBPyThread::Process - Entering source directory C:\Program Files (x86)\XBMC_SVN\portable_data\userdata
  457. 21:56:26 T:5476    INFO: Scriptresult: Success
  458. 21:56:26 T:5084   DEBUG: Instantiating addon using automatically obtained id of "script.randomitems" dependent on version 2.0 of the xbmc.python api
  459. 21:56:26 T:5476    INFO: Python script stopped
  460. 21:56:26 T:5476   DEBUG: Thread XBPyThread 5476 terminating
  461. 21:56:26 T:4248   DEBUG: waiting for python thread 3 to stop
  462. 21:56:26 T:4248   DEBUG: python thread 3 destructed
  463. 21:56:26 T:5084   DEBUG: script.randomitems: script version 3.0.3 started
  464. 21:56:26 T:4216   DEBUG: CMusicDatabase::GetRecentlyAddedAlbums query: select * from albumview order by idAlbum desc limit 10
  465. 21:56:26 T:4216   DEBUG: CRecentlyAddedJob::UpdateVideos() - Running RecentlyAdded home screen update
  466. 21:56:26 T:4216   DEBUG: CVideoDatabase::RunQuery took 1 ms for 10 items query: select * from movieview  order by idMovie desc limit 10
  467. 21:56:26 T:4216   DEBUG: CVideoDatabase::RunQuery took 0 ms for 10 items query: select * from episodeview order by idEpisode desc limit 10
  468. 21:56:26 T:5084   DEBUG: CVideoDatabase::RunQuery took 87 ms for 363 items query: select * from movieview
  469. 21:56:26 T:4216   DEBUG: CRecentlyAddedJob::UpdateTotal() - Running RecentlyAdded home screen update
  470. 21:56:27 T:5528   ERROR: CRemoteControl::Connect - failed to connect
  471. 21:56:27 T:5528    INFO: CRemoteControl::Process - failed to connect to irss, will keep retrying every 5 seconds
  472. 21:56:27 T:4216    INFO: WEATHER: Downloading weather
  473. 21:56:27 T:4216   DEBUG: SECTION:LoadDLL(special://xbmcbin/system/libcurl.dll)
  474. 21:56:27 T:2432   DEBUG: CImageLoader::DoWork - took 129 ms to load special://masterprofile/Thumbnails/Video/Fanart/c645ba0d.dds
  475. 21:56:28 T:4796   DEBUG: Thread CRssReader start, auto delete: 0
  476. 21:56:29 T:5208  NOTICE: Trakt Utilities: trakt json url: /account/test/48dfcb4813134da82152984e8c4f329bc8b8b46a
  477. 21:56:29 T:5084   DEBUG: CVideoDatabase::RunQuery took 91 ms for 1761 items query: select * from episodeview
  478. 21:56:30 T:1640   DEBUG: Thread Jobworker start, auto delete: 1
  479. 21:56:30 T:4216   DEBUG: Previous line repeats 1 times.
  480. 21:56:30 T:4216   DEBUG: FileCurl::Open(0A4FF750) http://xoap.weather.com/weather/local/NLXX0016?cc=*&unit=m&dayf=4&prod=xoap&link=xoap&par=1004124588&key=079f24145f208494
  481. 21:56:30 T:4216    INFO: XCURL::DllLibCurlGlobal::easy_aquire - Created session to http://xoap.weather.com
  482. 21:56:30 T:4796   DEBUG: FileCurl::Open(0D46F638) http://feeds.feedburner.com/xbmc
  483. 21:56:30 T:4796    INFO: XCURL::DllLibCurlGlobal::easy_aquire - Created session to http://feeds.feedburner.com
  484. 21:56:30 T:4796   DEBUG: Got rss feed: http://feeds.feedburner.com/xbmc
  485. 21:56:30 T:4796   DEBUG: RSS feed encoding: UTF-8
  486. 21:56:30 T:4796   DEBUG: Parsed rss feed: http://feeds.feedburner.com/xbmc
  487. 21:56:30 T:4796   DEBUG: Thread CRssReader 4796 terminating
  488. 21:56:32 T:4216    INFO: WEATHER: Weather download successful
  489. 21:56:32 T:4216   DEBUG: CZipManager::GetZipList - Processing zip://special%3a%2f%2fxbmc%2fmedia%2fweather%2ezip/
  490. 21:56:34 T:4248   DEBUG: SDLKeyboard: scancode: 4d, sym: 0113, unicode: 0000, modifier: 0
  491. 21:56:34 T:4248   DEBUG: CApplication::OnKey: right (f083) pressed, action is Right
  492. 21:56:34 T:4248   DEBUG: SDLKeyboard: scancode: 4d, sym: 0113, unicode: 0000, modifier: 0
  493. 21:56:34 T:4248   DEBUG: CApplication::OnKey: right (f083) pressed, action is Right
  494. 21:56:35 T:4248   DEBUG: SDLKeyboard: scancode: 1c, sym: 000d, unicode: 000d, modifier: 0
  495. 21:56:35 T:4248   DEBUG: CApplication::OnKey: return (f00d) pressed, action is Select
  496. 21:56:35 T:4248   DEBUG: CApplication::ExecuteXBMCAction : Translating XBMC.RunAddon(script.tv.show.next.aired)
  497. 21:56:35 T:4248   DEBUG: CApplication::ExecuteXBMCAction : To XBMC.RunAddon(script.tv.show.next.aired)
  498. 21:56:35 T:4248    INFO: initializing python engine.
  499. 21:56:35 T:4248   DEBUG: new python thread created. id=4
  500. 21:56:35 T:6104   DEBUG: Thread XBPyThread start, auto delete: 0
  501. 21:56:35 T:6104   DEBUG: Python thread: start processing
  502. 21:56:44 T:5084   DEBUG: CMusicDatabase::GetAlbumsByWhere query: select * from albumview where albumview.strAlbum <> ''
  503. 21:56:44 T:5084   DEBUG: CMusicDatabase::GetAlbumsByWhere - query took 8 ms
  504. 21:56:45 T:6104  NOTICE: -->Python Interpreter Initialized<--
  505. 21:56:45 T:6104   DEBUG: XBPyThread::Process - The source file to load is C:\Program Files (x86)\XBMC_SVN\portable_data\addons\script.tv.show.next.aired\default.py
  506. 21:56:45 T:6104   DEBUG: XBPyThread::Process - Setting the Python path to C:\Program Files (x86)\XBMC_SVN\portable_data\addons\script.tv.show.next.aired;C:\Program Files (x86)\XBMC_SVN\portable_data\addons\script.module.simplejson\lib;C:\Program Files (x86)\XBMC_SVN\portable_data\addons\script.module.beautifulsoup\lib;C:\Program Files (x86)\XBMC_SVN\addons\script.module.pil\lib;C:\Program Files (x86)\XBMC_SVN\portable_data\addons\script.module.elementtree\lib;C:\Program Files (x86)\XBMC_SVN\addons\script.module.pysqlite\lib;C:\Program Files (x86)\XBMC_SVN\system\python\DLLs;C:\Program Files (x86)\XBMC_SVN\system\python\Lib;C:\Program Files (x86)\XBMC_SVN\python26.zip;C:\Program Files (x86)\XBMC_SVN\system\python\lib\plat-win;C:\Program Files (x86)\XBMC_SVN\system\python\lib\lib-tk;C:\Program Files (x86)\XBMC_SVN;C:\Program Files (x86)\XBMC_SVN\system\python;C:\Program Files (x86)\XBMC_SVN\system\python\lib\site-packages;
  507. 21:56:45 T:6104   DEBUG: XBPyThread::Process - Entering source directory C:\Program Files (x86)\XBMC_SVN\portable_data\addons\script.tv.show.next.aired
  508. 21:56:45 T:6104   DEBUG: Instantiating addon using automatically obtained id of "script.tv.show.next.aired" dependent on version 2.0 of the xbmc.python api
  509. 21:56:45 T:5084   DEBUG: CMusicDatabase::GetSongsByWhere query = select * from songview
  510. 21:56:45 T:5084   DEBUG: CMusicDatabase::GetSongsByWhere() - took 273 ms
  511. 21:56:46 T:6104   DEBUG: ### TV Show - Next Aired starting ...
  512. 21:56:46 T:6104   DEBUG: ### author: Ppic, Frost, ronie, `Black
  513. 21:56:46 T:6104   DEBUG: ### version: 4.0.1
  514. 21:56:46 T:6104   DEBUG: ### params: {}
  515. 21:56:46 T:6104   DEBUG: ### db less than 24, fetch local data...
  516. 21:56:46 T:6104   DEBUG: ### Load list: C:\Program Files (x86)\XBMC_SVN\portable_data\userdata\addon_data\script.tv.show.next.aired\next_aired.db
  517. 21:56:46 T:6104   DEBUG: ### data available
  518. 21:56:46 T:6104   DEBUG: ### next list: 30 shows ### [{'Status': 'New Series', 'ep_img': 'special://masterprofile/Thumbnails/Video/b/bc187823.tbn', 'RFC3339': '2012-01-08T21:00:00-4:00', 'GMT+0 NODST': '1326067200', 'Network': 'FOX', 'Classification': 'Scripted', 'fanart': 'special://masterprofile/Thumbnails/Video/Fanart/bc187823.tbn', 'Show Name': 'Alcatraz', 'Show URL': 'http://www.tvrage.com/Alcatraz', 'Genres': 'Action | Drama | History | Mystery | Sci-Fi | Thriller', 'Premiered': '2012', 'Started': 'Jan/08/2012', 'Airtime': 'Monday at 09:00 pm', 'Ended': '', 'Show ID': '27523', 'Country': 'USA', 'Next Episode': '01x01^Pilot^Jan/08/2012', 'path': 'smb://192.168.50.150/HD1/Series/Alcatraz/', 'Runtime': '60', 'localname': 'Alcatraz', 'thumbnail': 'special://masterprofile/Thumbnails/Video/b/bc187823.tbn'}, {'ep_img': 'special://masterprofile/Thumbnails/Video/4/4aaa8053.tbn', 'Genres': 'Adult Cartoons | Comedy', 'Network': 'FOX', 'Airtime': 'Sunday at 09:30 pm', 'Next Episode': '07x03^TBA^Nov/06/2011', 'localname': 'American Dad!', 'Status': 'Returning Series', 'fanart': 'special://masterprofile/Thumbnails/Video/Fanart/4aaa8053.tbn', 'Latest Episode': '07x02^Hurricane!^Oct/02/2011', 'Show ID': '2594', 'Show Name': 'American Dad!', 'thumbnail': 'special://masterprofile/Thumbnails/Video/4/4aaa8053.tbn', 'GMT+0 NODST': '1320625800', 'Country': 'USA', 'Premiered': '2005', 'Started': 'Feb/06/2005', 'path': 'smb://192.168.50.150/HD1/Series/American Dad/', 'Runtime': '30', 'RFC3339': '2011-11-06T21:30:00-4:00', 'Classification': 'Animation', 'Show URL': 'http://www.tvrage.com/American_Dad', 'Ended': ''}, {'ep_img': 'special://masterprofile/Thumbnails/Video/2/28b6c67f.tbn', 'Genres': 'Drama | Family', 'Network': 'HBO', 'Airtime': 'Sunday at 09:00 pm', 'Next Episode': '02x03^A Dangerous Maid^Oct/09/2011', 'localname': 'Boardwalk Empire', 'Status': 'Returning Series', 'fanart': 'special://masterprofile/Thumbnails/Video/Fanart/28b6c67f.tbn', 'Latest Episode': '02x02^Ourselves Alone^Oct/02/2011', 'Show ID': '23561', 'Show Name': 'Boardwalk Empire', 'thumbnail': 'special://masterprofile/Thumbnails/Video/2/28b6c67f.tbn', 'GMT+0 NODST': '1318201200', 'Country': 'USA', 'Premiered': '2010', 'Started': 'Sep/19/2010', 'path': 'smb://192.168.50.150/HD1/Series/Boardwalk Empire/', 'Runtime': '60', 'RFC3339': '2011-10-09T21:00:00-4:00', 'Classification': 'Scripted', 'Show URL': 'http://www.tvrage.com/Boardwalk_Empire', 'Ended': ''}, {'ep_img': 'special://masterprofile/Thumbnails/Video/f/f2813e1f.tbn', 'Genres': 'Action | Adventure | Discovery/Science | Drama | Mystery', 'Network': 'FOX', 'Airtime': 'Thursday at 09:00 pm', 'Next Episode': '07x01^The Memories in the Shallow Grave^Nov/03/2011', 'localname': 'Bones', 'Status': 'Returning Series', 'fanart': 'special://masterprofile/Thumbnails/Video/Fanart/f2813e1f.tbn', 'Latest Episode': '06x23^The Change in the Game^May/19/2011', 'Show ID': '2870', 'Show Name': 'Bones', 'thumbnail': 'special://masterprofile/Thumbnails/Video/f/f2813e1f.tbn', 'GMT+0 NODST': '1320364800', 'Country': 'USA', 'Premiered': '2005', 'Started': 'Sep/13/2005', 'path': 'smb://192.168.50.150/HD1/Series/Bones/', 'Runtime': '60', 'RFC3339': '2011-11-03T21:00:00-4:00', 'Classification': 'Scripted', 'Show URL': 'http://www.tvrage.com/Bones', 'Ended': ''}, {'ep_img': 'special://masterprofile/Thumbnails/Video/7/75bf8231.tbn', 'Genres': 'Crime | Drama | Mystery', 'Network': 'ABC', 'Airtime': 'Monday at 10:00 pm', 'Next Episode': '04x04^Kick the Ballistics^Oct/10/2011', 'localname': 'Castle (2009)', 'Status': 'Returning Series', 'fanart': 'special://masterprofile/Thumbnails/Video/Fanart/75bf8231.tbn', 'Latest Episode': '04x03^Head Case^Oct/03/2011', 'Show ID': '19267', 'Show Name': 'Castle (2009)', 'thumbnail': 'special://masterprofile/Thumbnails/Video/7/75bf8231.tbn', 'GMT+0 NODST': '1318291200', 'Country': 'USA', 'Premiered': '2009', 'Started': 'Mar/09/2009', 'path': 'smb://192.168.50.150/HD1/Series/Castle 2009/', 'Runtime': '60', 'RFC3339': '2011-10-10T22:00:00-4:00', 'Classification': 'Scripted', 'Show URL': 'http://www.tvrage.com/Castle', 'Ended': ''}, {'ep_img': 'special://masterprofile/Thumbnails/Video/d/daf0942b.tbn', 'Genres': 'Comedy', 'Network': 'NBC', 'Airtime': 'Thursday at 08:00 pm', 'Next Episode': '03x04^Remedial Chaos Theory^Oct/13/2011', 'localname': 'Community', 'Status': 'Returning Series', 'fanart': 'special://masterprofile/Thumbnails/Video/Fanart/daf0942b.tbn', 'Latest Episode': '03x03^Competitive Ecology^Oct/06/2011', 'Show ID': '22589', 'Show Name': 'Community', 'thumbnail': 'special://masterprofile/Thumbnails/Video/d/daf0942b.tbn', 'GMT+0 NODST': '1318543200', 'Country': 'USA', 'Premiered': '2009', 'Started': 'Sep/17/2009', 'path': 'smb://192.168.50.150/HD1/Series/Community/', 'Runtime': '30', 'RFC3339': '2011-10-13T20:00:00-4:00', 'Classification': 'Scripted', 'Show URL': 'http://www.tvrage.com/Community', 'Ended': ''}, {'ep_img': 'special://masterprofile/Thumbnails/Video/d/de01774c.tbn', 'Genres': 'Action | Crime | Drama', 'Network': 'CBS', 'Airtime': 'Wednesday at 10:00 pm', 'Next Episode': '12x04^Maid Man^Oct/12/2011', 'localname': 'CSI: Crime Scene Investigation', 'Status': 'Returning Series', 'fanart': 'special://masterprofile/Thumbnails/Video/Fanart/de01774c.tbn', 'Latest Episode': '12x03^Bittersweet^Oct/05/2011', 'Show ID': '3183', 'Show Name': 'CSI: Crime Scene Investigation', 'thumbnail': 'special://masterprofile/Thumbnails/Video/d/de01774c.tbn', 'GMT+0 NODST': '1318464000', 'Country': 'USA', 'Premiered': '2000', 'Started': 'Oct/06/2000', 'path': 'smb://192.168.50.150/HD1/Series/Csi/', 'Runtime': '60', 'RFC3339': '2011-10-12T22:00:00-4:00', 'Classification': 'Scripted', 'Show URL': 'http://www.tvrage.com/CSI', 'Ended': ''}, {'ep_img': 'special://masterprofile/Thumbnails/Video/1/1d44b3c5.tbn', 'Genres': 'Action | Crime | Drama', 'Network': 'CBS', 'Airtime': 'Sunday at 10:00 pm', 'Next Episode': '10x03^Blown Away^Oct/09/2011', 'localname': 'CSI: Miami', 'Status': 'Returning Series', 'fanart': 'special://masterprofile/Thumbnails/Video/Fanart/1d44b3c5.tbn', 'Latest Episode': '10x02^Stiff^Oct/02/2011', 'Show ID': '3184', 'Show Name': 'CSI: Miami', 'thumbnail': 'special://masterprofile/Thumbnails/Video/1/1d44b3c5.tbn', 'GMT+0 NODST': '1318204800', 'Country': 'USA', 'Premiered': '2002', 'Started': 'Sep/23/2002', 'path': 'smb://192.168.50.150/HD1/Series/Csi Miami/', 'Runtime': '60', 'RFC3339': '2011-10-09T22:00:00-4:00', 'Classification': 'Scripted', 'Show URL': 'http://www.tvrage.com/CSI_Miami', 'Ended': ''}, {'ep_img': 'special://masterprofile/Thumbnails/Video/c/cf032d6b.tbn', 'Genres': 'Action | Crime | Drama | Mystery | Thriller', 'Network': 'CBS', 'Airtime': 'Friday at 09:00 pm', 'Next Episode': '08x04^Officer Involved^Oct/14/2011', 'localname': 'CSI: NY', 'Status': 'Returning Series', 'fanart': 'special://masterprofile/Thumbnails/Video/Fanart/cf032d6b.tbn', 'Latest Episode': '08x03^Cavallino Rampante^Oct/07/2011', 'Show ID': '3185', 'Show Name': 'CSI: NY', 'thumbnail': 'special://masterprofile/Thumbnails/Video/c/cf032d6b.tbn', 'GMT+0 NODST': '1318633200', 'Country': 'USA', 'Premiered': '2004', 'Started': 'Sep/22/2004', 'path': 'smb://192.168.50.150/HD1/Series/Csi New York/', 'Runtime': '60', 'RFC3339': '2011-10-14T21:00:00-4:00', 'Classification': 'Scripted', 'Show URL': 'http://www.tvrage.com/CSI_NY', 'Ended': ''}, {'ep_img': 'special://masterprofile/Thumbnails/Video/d/d62561e5.tbn', 'Genres': 'Comedy | Drama', 'Network': 'ABC', 'Airtime': 'Sunday at 09:00 pm', 'Next Episode': '08x03^Watch While I Revise the World^Oct/09/2011', 'localname': 'Desperate Housewives', 'Status': 'Final Season', 'fanart': 'special://masterprofile/Thumbnails/Video/Fanart/d62561e5.tbn', 'Latest Episode': '08x02^Making the Connection^Oct/02/2011', 'Show ID': '3294', 'Show Name': 'Desperate Housewives', 'thumbnail': 'special://masterprofile/Thumbnails/Video/d/d62561e5.tbn', 'GMT+0 NODST': '1318201200', 'Country': 'USA', 'Premiered': '2004', 'Started': 'Oct/03/2004', 'path': 'smb://192.168.50.150/HD1/Series/Desperate Housewives/', 'Runtime': '60', 'RFC3339': '2011-10-09T21:00:00-4:00', 'Classification': 'Scripted', 'Show URL': 'http://www.tvrage.com/Desperate_Housewives', 'Ended': ''}, {'ep_img': 'special://masterprofile/Thumbnails/Video/a/a6344c40.tbn', 'Genres': 'Crime | Drama', 'Network': 'Showtime', 'Airtime': 'Sunday at 09:00 pm', 'Next Episode': '06x02^Once Upon a Time...^Oct/09/2011', 'localname': 'Dexter', 'Status': 'Returning Series', 'fanart': 'special://masterprofile/Thumbnails/Video/Fanart/a6344c40.tbn', 'Latest Episode': '06x01^Those Kinds of Things^Oct/02/2011', 'Show ID': '7926', 'Show Name': 'Dexter', 'thumbnail': 'special://masterprofile/Thumbnails/Video/a/a6344c40.tbn', 'GMT+0 NODST': '1318201200', 'Country': 'USA', 'Premiered': '2006', 'Started': 'Oct/01/2006', 'path': 'smb://192.168.50.150/HD1/Series/Dexter/', 'Runtime': '60', 'RFC3339': '2011-10-09T21:00:00-4:00', 'Classification': 'Scripted', 'Show URL': 'http://www.tvrage.com/Dexter', 'Ended': ''}, {'ep_img': 'special://masterprofile/Thumbnails/Video/0/06fd91bc.tbn', 'Genres': 'Adult Cartoons | Comedy', 'Network': 'FOX', 'Airtime': 'Sunday at 09:00 pm', 'Next Episode': '10x03^TBA^Oct/30/2011', 'localname': 'Family Guy', 'Status': 'Returning Series', 'fanart': 'special://masterprofile/Thumbnails/Video/Fanart/06fd91bc.tbn', 'Latest Episode': '10x02^Seahorse Seashell Party^Oct/02/2011', 'Show ID': '3506', 'Show Name': 'Family Guy', 'thumbnail': 'special://masterprofile/Thumbnails/Video/0/06fd91bc.tbn', 'GMT+0 NODST': '1320019200', 'Country': 'USA', 'Premiered': '1999', 'Started': 'Jan/31/1999', 'path': 'smb://192.168.50.150/HD1/Series/Family Guy/', 'Runtime': '30', 'RFC3339': '2011-10-30T21:00:00-4:00', 'Classification': 'Animation', 'Show URL': 'http://www.tvrage.com/Family_Guy', 'Ended': ''}, {'ep_img': 'special://masterprofile/Thumbnails/Video/9/93173cab.tbn', 'Genres': 'Drama | Mystery | Sci-Fi', 'Network': 'FOX', 'Airtime': 'Friday at 09:00 pm', 'Next Episode': '04x04^Subject 9^Oct/14/2011', 'localname': 'Fringe', 'Status': 'Returning Series', 'fanart': 'special://masterprofile/Thumbnails/Video/Fanart/93173cab.tbn', 'Latest Episode': '04x03^Alone in the World^Oct/07/2011', 'Show ID': '18388', 'Show Name': 'Fringe', 'thumbnail': 'special://masterprofile/Thumbnails/Video/9/93173cab.tbn', 'GMT+0 NODST': '1318633200', 'Country': 'USA', 'Premiered': '2008', 'Started': 'Sep/09/2008', 'path': 'smb://192.168.50.150/HD1/Series/Fringe/', 'Runtime': '60', 'RFC3339': '2011-10-14T21:00:00-4:00', 'Classification': 'Scripted', 'Show URL': 'http://www.tvrage.com/Fringe', 'Ended': ''}, {'ep_img': 'special://masterprofile/Thumbnails/Video/d/dba2c91c.tbn', 'Genres': 'Action | Drama | Fantasy', 'Network': 'HBO', 'Airtime': 'Sunday at 09:00 pm', 'Next Episode': '02x01^Season 2, Episode 1^Apr/15/2012', 'localname': 'Game of Thrones', 'Status': 'Returning Series', 'fanart': 'special://masterprofile/Thumbnails/Video/Fanart/dba2c91c.tbn', 'Latest Episode': '01x10^Fire and Blood^Jun/19/2011', 'Show ID': '24493', 'Show Name': 'Game of Thrones', 'thumbnail': 'special://masterprofile/Thumbnails/Video/d/dba2c91c.tbn', 'GMT+0 NODST': '1334530800', 'Country': 'USA', 'Premiered': '2010', 'Started': 'Dec/10/2010', 'path': 'smb://192.168.50.150/HD1/Series/Game of Thrones/', 'Runtime': '60', 'RFC3339': '2012-04-15T21:00:00-4:00', 'Classification': 'Scripted', 'Show URL': 'http://www.tvrage.com/Game_of_Thrones', 'Ended': ''}, {'ep_img': 'special://masterprofile/Thumbnails/Video/9/9fc64f3f.tbn', 'Genres': 'Drama | Medical | Mystery', 'Network': 'FOX', 'Airtime': 'Monday at 09:00 pm', 'Next Episode': '08x02^Transplant^Oct/10/2011', 'localname': 'House', 'Status': 'Returning Series', 'fanart': 'special://masterprofile/Thumbnails/Video/Fanart/9fc64f3f.tbn', 'Latest Episode': '08x01^Twenty Vicodin^Oct/03/2011', 'Show ID': '3908', 'Show Name': 'House', 'thumbnail': 'special://masterprofile/Thumbnails/Video/9/9fc64f3f.tbn', 'GMT+0 NODST': '1318287600', 'Country': 'USA', 'Premiered': '2004', 'Started': 'Nov/16/2004', 'path': 'smb://192.168.50.150/HD1/Series/House/', 'Runtime': '60', 'RFC3339': '2011-10-10T21:00:00-4:00', 'Classification': 'Scripted', 'Show URL': 'http://www.tvrage.com/House', 'Ended': ''}, {'ep_img': 'special://masterprofile/Thumbnails/Video/3/3291ee15.tbn', 'Genres': 'Comedy', 'Network': 'CBS', 'Airtime': 'Monday at 08:00 pm', 'Next Episode': '07x05^Field Trip^Oct/10/2011', 'localname': 'How I Met Your Mother', 'Status': 'Returning Series', 'fanart': 'special://masterprofile/Thumbnails/Video/Fanart/3291ee15.tbn', 'Latest Episode': '07x04^The Stinson Missile Crisis^Oct/03/2011', 'Show ID': '3918', 'Show Name': 'How I Met Your Mother', 'thumbnail': 'special://masterprofile/Thumbnails/Video/3/3291ee15.tbn', 'GMT+0 NODST': '1318284000', 'Country': 'USA', 'Premiered': '2005', 'Started': 'Sep/19/2005', 'path': 'smb://192.168.50.150/HD1/Series/How I Met Your Mother/', 'Runtime': '30', 'RFC3339': '2011-10-10T20:00:00-4:00', 'Classification': 'Scripted', 'Show URL': 'http://www.tvrage.com/How_I_Met_Your_Mother', 'Ended': ''}, {'ep_img': 'special://masterprofile/Thumbnails/Video/1/1cb2bc40.tbn', 'Genres': 'Action | Crime | Drama', 'Network': 'NBC', 'Airtime': 'Wednesday at 10:00 pm', 'Next Episode': '13x04^Double Strands^Oct/12/2011', 'localname': 'Law & Order: Special Victims Unit', 'Status': 'Returning Series', 'fanart': 'special://masterprofile/Thumbnails/Video/Fanart/1cb2bc40.tbn', 'Latest Episode': '13x03^Blood Brothers^Oct/05/2011', 'Show ID': '4204', 'Show Name': 'Law & Order: Special Victims Unit', 'thumbnail': 'special://masterprofile/Thumbnails/Video/1/1cb2bc40.tbn', 'GMT+0 NODST': '1318464000', 'Country': 'USA', 'Premiered': '1999', 'Started': 'Sep/20/1999', 'path': 'smb://192.168.50.150/HD1/Series/Law & Order Special Victims Unit/', 'Runtime': '60', 'RFC3339': '2011-10-12T22:00:00-4:00', 'Classification': 'Scripted', 'Show URL': 'http://www.tvrage.com/Law_And_Order_SVU', 'Ended': ''}, {'Status': 'Returning Series', 'ep_img': 'special://masterprofile/Thumbnails/Video/3/37f56dbd.tbn', 'Genres': 'Comedy', 'GMT+0 NODST': '', 'Network': 'ABC Family', 'Classification': 'Scripted', 'fanart': 'special://masterprofile/Thumbnails/Video/Fanart/37f56dbd.tbn', 'Show Name': 'Melissa & Joey', 'Show URL': 'http://www.tvrage.com/Melissa_And_Joey', 'Premiered': '2010', 'Started': 'Aug/17/2010', 'Airtime': 'Wednesday at 08:00 pm', 'Ended': '', 'Show ID': '25864', 'Country': 'USA', 'Next Episode': '02x01^I Can Manage^2012', 'path': 'smb://192.168.50.150/HD1/Series/Melissa and Joey/', 'Runtime': '30', 'localname': 'Melissa & Joey', 'thumbnail': 'special://masterprofile/Thumbnails/Video/3/37f56dbd.tbn', 'Latest Episode': '01x30^The Settlement^Sep/14/2011'}, {'ep_img': 'special://masterprofile/Thumbnails/Video/b/bbd024ef.tbn', 'Genres': 'Comedy', 'Network': 'ABC', 'Airtime': 'Wednesday at 09:00 pm', 'Next Episode': '03x05^Hit and Run^Oct/12/2011', 'localname': 'Modern Family', 'Status': 'Returning Series', 'fanart': 'special://masterprofile/Thumbnails/Video/Fanart/bbd024ef.tbn', 'Latest Episode': '03x04^Door to Door^Oct/05/2011', 'Show ID': '22622', 'Show Name': 'Modern Family', 'thumbnail': 'special://masterprofile/Thumbnails/Video/b/bbd024ef.tbn', 'GMT+0 NODST': '1318460400', 'Country': 'USA', 'Premiered': '2009', 'Started': 'Sep/23/2009', 'path': 'smb://192.168.50.150/HD1/Series/Modern Family/', 'Runtime': '30', 'RFC3339': '2011-10-12T21:00:00-4:00', 'Classification': 'Scripted', 'Show URL': 'http://www.tvrage.com/Modern_Family', 'Ended': ''}, {'ep_img': 'special://masterprofile/Thumbnails/Video/7/7608dc13.tbn', 'Genres': 'Action | Drama', 'Network': 'The CW', 'Airtime': 'Friday at 08:00 pm', 'Next Episode': '02x04^Partners^Oct/14/2011', 'localname': 'Nikita', 'Status': 'Returning Series', 'fanart': 'special://masterprofile/Thumbnails/Video/Fanart/7608dc13.tbn', 'Latest Episode': '02x03^Knightfall^Oct/07/2011', 'Show ID': '25189', 'Show Name': 'Nikita', 'thumbnail': 'special://masterprofile/Thumbnails/Video/7/7608dc13.tbn', 'GMT+0 NODST': '1318629600', 'Country': 'USA', 'Premiered': '2010', 'Started': 'Sep/09/2010', 'path': 'smb://192.168.50.150/HD1/Series/Nikita/', 'Runtime': '60', 'RFC3339': '2011-10-14T20:00:00-4:00', 'Classification': 'Scripted', 'Show URL': 'http://www.tvrage.com/Nikita', 'Ended': ''}, {'ep_img': 'special://masterprofile/Thumbnails/Video/2/2e6473d2.tbn', 'Genres': 'Comedy', 'Network': 'NBC', 'Airtime': 'Thursday at 08:30 pm', 'Next Episode': '04x04^Pawnee Rangers^Oct/13/2011', 'localname': 'Parks and Recreation', 'Status': 'Returning Series', 'fanart': 'special://masterprofile/Thumbnails/Video/Fanart/2e6473d2.tbn', 'Latest Episode': '04x03^Born & Raised^Oct/06/2011', 'Show ID': '21686', 'Show Name': 'Parks and Recreation', 'thumbnail': 'special://masterprofile/Thumbnails/Video/2/2e6473d2.tbn', 'GMT+0 NODST': '1318545000', 'Country': 'USA', 'Premiered': '2009', 'Started': 'Apr/09/2009', 'path': 'smb://192.168.50.150/HD1/Series/Parks and Recreation/', 'Runtime': '30', 'RFC3339': '2011-10-13T20:30:00-4:00', 'Classification': 'Scripted', 'Show URL': 'http://www.tvrage.com/Parks_and_Recreation', 'Ended': ''}, {'ep_img': 'special://masterprofile/Thumbnails/Video/d/d6173a81.tbn', 'Genres': 'Drama', 'Network': 'FX', 'Airtime': 'Tuesday at 10:00 pm', 'Next Episode': '04x06^With An X^Oct/11/2011', 'localname': 'Sons of Anarchy', 'Status': 'Returning Series', 'fanart': 'special://masterprofile/Thumbnails/Video/Fanart/d6173a81.tbn', 'Latest Episode': '04x05^Brick^Oct/04/2011', 'Show ID': '18174', 'Show Name': 'Sons of Anarchy', 'thumbnail': 'special://masterprofile/Thumbnails/Video/d/d6173a81.tbn', 'GMT+0 NODST': '1318377600', 'Country': 'USA', 'Premiered': '2008', 'Started': 'Sep/03/2008', 'path': 'smb://192.168.50.150/HD1/Series/Sons of Anarchy/', 'Runtime': '60', 'RFC3339': '2011-10-11T22:00:00-4:00', 'Classification': 'Scripted', 'Show URL': 'http://www.tvrage.com/Sons_of_Anarchy', 'Ended': ''}, {'ep_img': 'special://masterprofile/Thumbnails/Video/1/1c5d8780.tbn', 'Genres': 'Adult Cartoons | Comedy', 'Network': 'Comedy Central', 'Airtime': 'Wednesday at 10:00 pm', 'Next Episode': '15x00^Six Days to Air: The Making of "South Park"^Oct/09/2011', 'localname': 'South Park', 'Status': 'Returning Series', 'fanart': 'special://masterprofile/Thumbnails/Video/Fanart/1c5d8780.tbn', 'Latest Episode': '15x08^Ass Burgers^Oct/05/2011', 'Show ID': '5266', 'Show Name': 'South Park', 'thumbnail': 'special://masterprofile/Thumbnails/Video/1/1c5d8780.tbn', 'GMT+0 NODST': '1318204800', 'Country': 'USA', 'Premiered': '1997', 'Started': 'Aug/13/1997', 'path': 'smb://192.168.50.150/HD1/Series/South Park/', 'Runtime': '30', 'RFC3339': '2011-10-09T22:00:00-4:00', 'Classification': 'Animation', 'Show URL': 'http://www.tvrage.com/South_Park', 'Ended': ''}, {'ep_img': 'special://masterprofile/Thumbnails/Video/b/b91b7d5d.tbn', 'Genres': 'Action | Adventure | Drama | Family | Fantasy | Sci-Fi', 'Network': 'FOX', 'Airtime': 'Monday at 08:00 pm', 'Next Episode': '01x04^What Remains^Oct/10/2011', 'localname': 'Terra Nova', 'Status': 'New Series', 'fanart': 'special://masterprofile/Thumbnails/Video/Fanart/b91b7d5d.tbn', 'Latest Episode': '01x03^Instinct^Oct/03/2011', 'Show ID': '25729', 'Show Name': 'Terra Nova', 'thumbnail': 'special://masterprofile/Thumbnails/Video/b/b91b7d5d.tbn', 'GMT+0 NODST': '1318284000', 'Country': 'USA', 'Premiered': '2011', 'Started': 'Sep/26/2011', 'path': 'smb://192.168.50.150/HD1/Series/Terra Nova/', 'Runtime': '60', 'RFC3339': '2011-10-10T20:00:00-4:00', 'Classification': 'Scripted', 'Show URL': 'http://www.tvrage.com/Terra_Nova', 'Ended': ''}, {'ep_img': 'special://masterprofile/Thumbnails/Video/b/bb55323f.tbn', 'Genres': 'Comedy', 'Network': 'CBS', 'Airtime': 'Thursday at 08:00 pm', 'Next Episode': '05x05^The Russian Rocket Reaction^Oct/13/2011', 'localname': 'The Big Bang Theory', 'Status': 'Returning Series', 'fanart': 'special://masterprofile/Thumbnails/Video/Fanart/bb55323f.tbn', 'Latest Episode': '05x04^The Wiggly Finger Catalyst^Oct/06/2011', 'Show ID': '8511', 'Show Name': 'The Big Bang Theory', 'thumbnail': 'special://masterprofile/Thumbnails/Video/b/bb55323f.tbn', 'GMT+0 NODST': '1318543200', 'Country': 'USA', 'Premiered': '2007', 'Started': 'Sep/24/2007', 'path': 'smb://192.168.50.150/HD1/Series/The Big Bang Theory/', 'Runtime': '30', 'RFC3339': '2011-10-13T20:00:00-4:00', 'Classification': 'Scripted', 'Show URL': 'http://www.tvrage.com/The_Big_Bang_Theory', 'Ended': ''}, {'ep_img': 'special://masterprofile/Thumbnails/Video/8/8a33b6c3.tbn', 'Genres': 'Adult Cartoons | Comedy', 'Network': 'FOX', 'Airtime': 'Sunday at 08:30 pm', 'Country': 'USA', 'Next Episode': '03x03^TBA^Oct/30/2011', 'localname': 'The Cleveland Show', 'Status': 'Returning Series', 'Ended': '', 'fanart': 'special://masterprofile/Thumbnails/Video/Fanart/8a33b6c3.tbn', 'Latest Episode': '03x02^The Hurricane^Oct/02/2011', 'Show ID': '18740', 'Show Name': 'The Cleveland Show', 'thumbnail': 'special://masterprofile/Thumbnails/Video/8/8a33b6c3.tbn', 'GMT+0 NODST': '1320021000', 'Special Airtime': '09:30 pm', 'Premiered': '2009', 'path': 'smb://192.168.50.150/HD1/Series/The Cleveland Show/', 'Runtime': '30', 'RFC3339': '2011-10-30T21:30:00-4:00', 'Classification': 'Animation', 'Show URL': 'http://www.tvrage.com/The_Cleveland_Show', 'Started': 'Sep/27/2009'}, {'ep_img': 'special://masterprofile/Thumbnails/Video/0/05925064.tbn', 'Genres': 'Drama', 'Network': 'CBS', 'Airtime': 'Thursday at 10:00 pm', 'Next Episode': '04x04^Ring Around the Rosie^Oct/13/2011', 'localname': 'The Mentalist', 'Status': 'Returning Series', 'fanart': 'special://masterprofile/Thumbnails/Video/Fanart/05925064.tbn', 'Latest Episode': '04x03^Pretty Red Balloon^Oct/06/2011', 'Show ID': '18967', 'Show Name': 'The Mentalist', 'thumbnail': 'special://masterprofile/Thumbnails/Video/0/05925064.tbn', 'GMT+0 NODST': '1318550400', 'Country': 'USA', 'Premiered': '2008', 'Started': 'Sep/23/2008', 'path': 'smb://192.168.50.150/HD1/Series/The Mentalist/', 'Runtime': '60', 'RFC3339': '2011-10-13T22:00:00-4:00', 'Classification': 'Scripted', 'Show URL': 'http://www.tvrage.com/The_Mentalist', 'Ended': ''}, {'ep_img': 'special://masterprofile/Thumbnails/Video/b/b44d2ae0.tbn', 'Genres': 'Adult Cartoons | Comedy', 'Network': 'FOX', 'Airtime': 'Sunday at 08:00 pm', 'Next Episode': '23x03^Treehouse of Horrors XXII^Oct/30/2011', 'localname': 'The Simpsons', 'Status': 'Returning Series', 'fanart': 'special://masterprofile/Thumbnails/Video/Fanart/b44d2ae0.tbn', 'Latest Episode': '23x02^Bart Stops to Smell the Roosevelts^Oct/02/2011', 'Show ID': '6190', 'Show Name': 'The Simpsons', 'thumbnail': 'special://masterprofile/Thumbnails/Video/b/b44d2ae0.tbn', 'GMT+0 NODST': '1320015600', 'Country': 'USA', 'Premiered': '1989', 'Started': 'Dec/17/1989', 'path': 'smb://192.168.50.150/HD1/Series/The Simpsons/', 'Runtime': '30', 'RFC3339': '2011-10-30T20:00:00-4:00', 'Classification': 'Animation', 'Show URL': 'http://www.tvrage.com/The_Simpsons', 'Ended': ''}, {'ep_img': 'special://masterprofile/Thumbnails/Video/3/37999f49.tbn', 'Genres': 'Action | Drama | Family | Horror/Supernatural | Thriller', 'Network': 'AMC', 'Airtime': 'Sunday at 10:00 pm', 'Next Episode': '02x01^Miles Behind Us^Oct/16/2011', 'localname': 'The Walking Dead', 'Status': 'Returning Series', 'fanart': 'special://masterprofile/Thumbnails/Video/Fanart/37999f49.tbn', 'Latest Episode': '01x06^TS-19^Dec/05/2010', 'Show ID': '25056', 'Show Name': 'The Walking Dead', 'thumbnail': 'special://masterprofile/Thumbnails/Video/3/37999f49.tbn', 'GMT+0 NODST': '1318809600', 'Country': 'USA', 'Premiered': '2010', 'Started': 'Oct/31/2010', 'path': 'smb://192.168.50.150/HD1/Series/The Walking Dead/', 'Runtime': '60', 'RFC3339': '2011-10-16T22:00:00-4:00', 'Classification': 'Scripted', 'Show URL': 'http://www.tvrage.com/The_Walking_Dead', 'Ended': ''}, {'ep_img': 'special://masterprofile/Thumbnails/Video/d/d0fd906b.tbn', 'Genres': 'Comedy', 'Network': 'CBS', 'Airtime': 'Monday at 09:00 pm', 'Next Episode': '09x04^Nine Magic Fingers^Oct/10/2011', 'localname': 'Two and a Half Men', 'Status': 'Returning Series', 'fanart': 'special://masterprofile/Thumbnails/Video/Fanart/d0fd906b.tbn', 'Latest Episode': "09x03^Big Girls Don't Throw Food^Oct/03/2011", 'Show ID': '6454', 'Show Name': 'Two and a Half Men', 'thumbnail': 'special://masterprofile/Thumbnails/Video/d/d0fd906b.tbn', 'GMT+0 NODST': '1318287600', 'Country': 'USA', 'Premiered': '2003', 'Started': 'Sep/22/2003', 'path': 'smb://192.168.50.150/HD1/Series/Two and a Half Men/', 'Runtime': '30', 'RFC3339': '2011-10-10T21:00:00-4:00', 'Classification': 'Scripted', 'Show URL': 'http://www.tvrage.com/Two_and_a_Half_Men', 'Ended': ''}]
  519. 21:56:46 T:6104   DEBUG: 2011-10-09
  520. 21:56:46 T:6104   DEBUG: ################
  521. 21:56:46 T:6104   DEBUG: ### Boardwalk Empire
  522. 21:56:46 T:6104   DEBUG: ### 02x03^A Dangerous Maid^Oct/09/2011
  523. 21:56:46 T:6104   DEBUG: ### 2011-10-09T21:00:00-4:00
  524. 21:56:46 T:6104   DEBUG: 2011-10-09
  525. 21:56:46 T:6104   DEBUG: ################
  526. 21:56:46 T:6104   DEBUG: ### Desperate Housewives
  527. 21:56:46 T:6104   DEBUG: ### 08x03^Watch While I Revise the World^Oct/09/2011
  528. 21:56:46 T:6104   DEBUG: ### 2011-10-09T21:00:00-4:00
  529. 21:56:46 T:6104   DEBUG: 2011-10-09
  530. 21:56:46 T:6104   DEBUG: ################
  531. 21:56:46 T:6104   DEBUG: ### Dexter
  532. 21:56:46 T:6104   DEBUG: ### 06x02^Once Upon a Time...^Oct/09/2011
  533. 21:56:46 T:6104   DEBUG: ### 2011-10-09T21:00:00-4:00
  534. 21:56:46 T:6104   DEBUG: 2011-10-09
  535. 21:56:46 T:6104   DEBUG: ################
  536. 21:56:46 T:6104   DEBUG: ### CSI: Miami
  537. 21:56:46 T:6104   DEBUG: ### 10x03^Blown Away^Oct/09/2011
  538. 21:56:46 T:6104   DEBUG: ### 2011-10-09T22:00:00-4:00
  539. 21:56:46 T:6104   DEBUG: 2011-10-09
  540. 21:56:46 T:6104   DEBUG: ################
  541. 21:56:46 T:6104   DEBUG: ### South Park
  542. 21:56:46 T:6104   DEBUG: ### 15x00^Six Days to Air: The Making of "South Park"^Oct/09/2011
  543. 21:56:46 T:6104   DEBUG: ### 2011-10-09T22:00:00-4:00
  544. 21:56:46 T:6104   DEBUG: 2011-10-09
  545. 21:56:46 T:6104   DEBUG: ################
  546. 21:56:46 T:6104   DEBUG: ### How I Met Your Mother
  547. 21:56:46 T:6104   DEBUG: ### 07x05^Field Trip^Oct/10/2011
  548. 21:56:46 T:6104   DEBUG: ### 2011-10-10T20:00:00-4:00
  549. 21:56:46 T:6104   DEBUG: 2011-10-10
  550. 21:56:46 T:6104   DEBUG: ################
  551. 21:56:46 T:6104   DEBUG: ### Terra Nova
  552. 21:56:46 T:6104   DEBUG: ### 01x04^What Remains^Oct/10/2011
  553. 21:56:46 T:6104   DEBUG: ### 2011-10-10T20:00:00-4:00
  554. 21:56:46 T:6104   DEBUG: 2011-10-10
  555. 21:56:46 T:6104   DEBUG: ################
  556. 21:56:46 T:6104   DEBUG: ### House
  557. 21:56:46 T:6104   DEBUG: ### 08x02^Transplant^Oct/10/2011
  558. 21:56:46 T:6104   DEBUG: ### 2011-10-10T21:00:00-4:00
  559. 21:56:46 T:6104   DEBUG: 2011-10-10
  560. 21:56:46 T:6104   DEBUG: ################
  561. 21:56:46 T:6104   DEBUG: ### Two and a Half Men
  562. 21:56:46 T:6104   DEBUG: ### 09x04^Nine Magic Fingers^Oct/10/2011
  563. 21:56:46 T:6104   DEBUG: ### 2011-10-10T21:00:00-4:00
  564. 21:56:46 T:6104   DEBUG: 2011-10-10
  565. 21:56:46 T:6104   DEBUG: ################
  566. 21:56:46 T:6104   DEBUG: ### Castle (2009)
  567. 21:56:46 T:6104   DEBUG: ### 04x04^Kick the Ballistics^Oct/10/2011
  568. 21:56:46 T:6104   DEBUG: ### 2011-10-10T22:00:00-4:00
  569. 21:56:46 T:6104   DEBUG: 2011-10-10
  570. 21:56:46 T:6104   DEBUG: ################
  571. 21:56:46 T:6104   DEBUG: ### Sons of Anarchy
  572. 21:56:46 T:6104   DEBUG: ### 04x06^With An X^Oct/11/2011
  573. 21:56:46 T:6104   DEBUG: ### 2011-10-11T22:00:00-4:00
  574. 21:56:46 T:6104   DEBUG: 2011-10-11
  575. 21:56:46 T:6104   DEBUG: ################
  576. 21:56:46 T:6104   DEBUG: ### Modern Family
  577. 21:56:46 T:6104   DEBUG: ### 03x05^Hit and Run^Oct/12/2011
  578. 21:56:46 T:6104   DEBUG: ### 2011-10-12T21:00:00-4:00
  579. 21:56:46 T:6104   DEBUG: 2011-10-12
  580. 21:56:46 T:6104   DEBUG: ################
  581. 21:56:46 T:6104   DEBUG: ### CSI: Crime Scene Investigation
  582. 21:56:46 T:6104   DEBUG: ### 12x04^Maid Man^Oct/12/2011
  583. 21:56:46 T:6104   DEBUG: ### 2011-10-12T22:00:00-4:00
  584. 21:56:46 T:6104   DEBUG: 2011-10-12
  585. 21:56:46 T:6104   DEBUG: ################
  586. 21:56:46 T:6104   DEBUG: ### Law & Order: Special Victims Unit
  587. 21:56:46 T:6104   DEBUG: ### 13x04^Double Strands^Oct/12/2011
  588. 21:56:46 T:6104   DEBUG: ### 2011-10-12T22:00:00-4:00
  589. 21:56:46 T:6104   DEBUG: 2011-10-12
  590. 21:56:46 T:6104   DEBUG: ################
  591. 21:56:46 T:6104   DEBUG: ### Community
  592. 21:56:46 T:6104   DEBUG: ### 03x04^Remedial Chaos Theory^Oct/13/2011
  593. 21:56:46 T:6104   DEBUG: ### 2011-10-13T20:00:00-4:00
  594. 21:56:46 T:6104   DEBUG: 2011-10-13
  595. 21:56:46 T:6104   DEBUG: ################
  596. 21:56:46 T:6104   DEBUG: ### The Big Bang Theory
  597. 21:56:46 T:6104   DEBUG: ### 05x05^The Russian Rocket Reaction^Oct/13/2011
  598. 21:56:46 T:6104   DEBUG: ### 2011-10-13T20:00:00-4:00
  599. 21:56:46 T:6104   DEBUG: 2011-10-13
  600. 21:56:46 T:6104   DEBUG: ################
  601. 21:56:46 T:6104   DEBUG: ### Parks and Recreation
  602. 21:56:46 T:6104   DEBUG: ### 04x04^Pawnee Rangers^Oct/13/2011
  603. 21:56:46 T:6104   DEBUG: ### 2011-10-13T20:30:00-4:00
  604. 21:56:46 T:6104   DEBUG: 2011-10-13
  605. 21:56:46 T:6104   DEBUG: ################
  606. 21:56:46 T:6104   DEBUG: ### The Mentalist
  607. 21:56:46 T:6104   DEBUG: ### 04x04^Ring Around the Rosie^Oct/13/2011
  608. 21:56:46 T:6104   DEBUG: ### 2011-10-13T22:00:00-4:00
  609. 21:56:46 T:6104   DEBUG: 2011-10-13
  610. 21:56:46 T:6104   DEBUG: ################
  611. 21:56:46 T:6104   DEBUG: ### Nikita
  612. 21:56:46 T:6104   DEBUG: ### 02x04^Partners^Oct/14/2011
  613. 21:56:46 T:6104   DEBUG: ### 2011-10-14T20:00:00-4:00
  614. 21:56:46 T:6104   DEBUG: 2011-10-14
  615. 21:56:46 T:6104   DEBUG: ################
  616. 21:56:46 T:6104   DEBUG: ### CSI: NY
  617. 21:56:46 T:6104   DEBUG: ### 08x04^Officer Involved^Oct/14/2011
  618. 21:56:46 T:6104   DEBUG: ### 2011-10-14T21:00:00-4:00
  619. 21:56:46 T:6104   DEBUG: 2011-10-14
  620. 21:56:46 T:6104   DEBUG: ################
  621. 21:56:46 T:6104   DEBUG: ### Fringe
  622. 21:56:46 T:6104   DEBUG: ### 04x04^Subject 9^Oct/14/2011
  623. 21:56:46 T:6104   DEBUG: ### 2011-10-14T21:00:00-4:00
  624. 21:56:46 T:6104   DEBUG: 2011-10-14
  625. 21:56:46 T:6104   DEBUG: ################
  626. 21:56:46 T:6104   DEBUG: ### The Walking Dead
  627. 21:56:46 T:6104   DEBUG: ### 02x01^Miles Behind Us^Oct/16/2011
  628. 21:56:46 T:6104   DEBUG: ### 2011-10-16T22:00:00-4:00
  629. 21:56:46 T:6104   DEBUG: 2011-10-16
  630. 21:56:46 T:6104   DEBUG: ################
  631. 21:56:46 T:6104   DEBUG: ### The Simpsons
  632. 21:56:46 T:6104   DEBUG: ### 23x03^Treehouse of Horrors XXII^Oct/30/2011
  633. 21:56:46 T:6104   DEBUG: ### 2011-10-30T20:00:00-4:00
  634. 21:56:46 T:6104   DEBUG: 2011-10-30
  635. 21:56:46 T:6104   DEBUG: ################
  636. 21:56:46 T:6104   DEBUG: ### Family Guy
  637. 21:56:46 T:6104   DEBUG: ### 10x03^TBA^Oct/30/2011
  638. 21:56:46 T:6104   DEBUG: ### 2011-10-30T21:00:00-4:00
  639. 21:56:46 T:6104   DEBUG: 2011-10-30
  640. 21:56:46 T:6104   DEBUG: ################
  641. 21:56:46 T:6104   DEBUG: ### The Cleveland Show
  642. 21:56:46 T:6104   DEBUG: ### 03x03^TBA^Oct/30/2011
  643. 21:56:46 T:6104   DEBUG: ### 2011-10-30T21:30:00-4:00
  644. 21:56:46 T:6104   DEBUG: 2011-10-30
  645. 21:56:46 T:6104   DEBUG: ################
  646. 21:56:46 T:6104   DEBUG: ### Bones
  647. 21:56:46 T:6104   DEBUG: ### 07x01^The Memories in the Shallow Grave^Nov/03/2011
  648. 21:56:46 T:6104   DEBUG: ### 2011-11-03T21:00:00-4:00
  649. 21:56:46 T:6104   DEBUG: 2011-11-03
  650. 21:56:46 T:6104   DEBUG: ################
  651. 21:56:46 T:6104   DEBUG: ### American Dad!
  652. 21:56:46 T:6104   DEBUG: ### 07x03^TBA^Nov/06/2011
  653. 21:56:46 T:6104   DEBUG: ### 2011-11-06T21:30:00-4:00
  654. 21:56:46 T:6104   DEBUG: 2011-11-06
  655. 21:56:46 T:6104   DEBUG: ################
  656. 21:56:46 T:6104   DEBUG: ### Alcatraz
  657. 21:56:46 T:6104   DEBUG: ### 01x01^Pilot^Jan/08/2012
  658. 21:56:46 T:6104   DEBUG: ### 2012-01-08T21:00:00-4:00
  659. 21:56:46 T:6104   DEBUG: 2012-01-08
  660. 21:56:46 T:6104   DEBUG: ################
  661. 21:56:46 T:6104   DEBUG: ### Game of Thrones
  662. 21:56:46 T:6104   DEBUG: ### 02x01^Season 2, Episode 1^Apr/15/2012
  663. 21:56:46 T:6104   DEBUG: ### 2012-04-15T21:00:00-4:00
  664. 21:56:46 T:6104   DEBUG: 2012-04-15
  665. 21:56:46 T:6104   DEBUG: ################
  666. 21:56:46 T:6104   DEBUG: ### Melissa & Joey
  667. 21:56:46 T:6104   DEBUG: ### 02x01^I Can Manage^2012
  668. 21:56:46 T:6104   DEBUG: ### no rfc
  669. 21:56:46 T:6104   DEBUG: ### today show: 0 -
  670. 21:56:46 T:6104   ERROR: Traceback (most recent call last):
  671. 21:56:46 T:6104   ERROR:   File "C:\Program Files (x86)\XBMC_SVN\portable_data\addons\script.tv.show.next.aired\default.py", line 247, in push_data
  672. 21:56:46 T:6104   ERROR:     self.WINDOW.setProperty("NextAired.%d.LatestDate" % ( count + 1, ), latest[2] or "")
  673. 21:56:46 T:6104   ERROR: IndexError: list index out of range
  674. 21:56:46 T:4248   DEBUG: Activating window ID: 13000
  675. 21:56:46 T:4248   DEBUG: ------ Window Deinit (Home.xml) ------
  676. 21:56:46 T:4248   DEBUG: ------ Window Init (C:\Program Files (x86)\XBMC_SVN\portable_data\addons\skin.aeon.nox\720p\script-NextAired-TVGuide.xml) ------
  677. 21:56:46 T:4248    INFO: Loading skin file: C:\Program Files (x86)\XBMC_SVN\portable_data\addons\skin.aeon.nox\720p\script-NextAired-TVGuide.xml
  678. 21:56:46 T:4248   DEBUG: unable to load C:\Program Files (x86)\XBMC_SVN\portable_data\addons\script.tv.show.next.aired\resources\language\English (US)\strings.xml: Failed to open file at line 0
  679. 21:56:46 T:4248   DEBUG: CApplication::ExecuteXBMCAction : Translating ClearProperty(TVGuide.MondayList,Home)
  680. 21:56:46 T:4248   DEBUG: CApplication::ExecuteXBMCAction : To ClearProperty(TVGuide.MondayList,Home)
  681. 21:56:46 T:5084   DEBUG: script.randomitems: script stopped
  682. 21:56:46 T:5084    INFO: Scriptresult: Success
  683. 21:56:46 T:5084    INFO: Python script stopped
  684. 21:56:46 T:5084   DEBUG: Thread XBPyThread 5084 terminating
  685. 21:56:46 T:4248   DEBUG: waiting for python thread 2 to stop
  686. 21:56:46 T:4248   DEBUG: python thread 2 destructed
  687. 21:56:46 T:6104   ERROR: Traceback (most recent call last):
  688. 21:56:46 T:6104   ERROR:   File "C:\Program Files (x86)\XBMC_SVN\portable_data\addons\script.tv.show.next.aired\default.py", line 335, in set_labels
  689. 21:56:46 T:6104   ERROR:     label.setProperty(prefix + "LatestDate", latest[2] or "")
  690. 21:56:46 T:6104   ERROR: IndexError: list index out of range
  691. 21:56:48 T:2420  NOTICE: Trakt Utilities: [Notification Service] Waiting~
  692. 21:56:48 T:5316   DEBUG: JSONRPC Server: New connection detected
  693. 21:56:48 T:5316    INFO: JSONRPC Server: New connection added
  694. 21:56:49 T:4248   DEBUG: CWinEventsWin32::WndProcWindow is active
  695.  
  696.  
clone this paste RAW Paste Data